Observation data for Guadalupe Mtns Park on 01/16/2018      Previous  Date  Next       Current Mesonet Observations  Soil Data  Daily Summary Page  Observations in Plain Language
KGU1 160600Z 05013KT M07/M08 A3047 RMK A01 T10661081  RH  090%=      5-min Rain = 0
KGU1 160601Z 06013KT M07/M08 A3047 RMK A01 T10661082  RH  090%=      5-min Rain = 0
KGU1 160602Z 06012KT M07/M08 A3047 RMK A01 T10671083  RH  089%=      5-min Rain = 0
KGU1 160603Z 05013KT M07/M08 A3047 RMK A01 T10661083  RH  089%=      5-min Rain = 0
KGU1 160604Z 05014KT M07/M09 A3047 RMK A01 T10671085  RH  088%=      5-min Rain = 0
KGU1 160605Z 05014G20KT M07/M09 A3047 RMK A01 T10671086  RH  087%=      5-min Rain = 0
KGU1 160606Z 05013G18KT M07/M09 A3047 RMK A01 T10671087  RH  087%=      5-min Rain = 0
KGU1 160607Z 05015KT M07/M09 A3047 RMK A01 T10671087  RH  087%=      5-min Rain = 0
KGU1 160608Z 05016KT M07/M09 A3047 RMK A01 T10671087  RH  087%=      5-min Rain = 0
KGU1 160609Z 05016KT M07/M09 A3047 RMK A01 T10671088  RH  086%=      5-min Rain = 0
KGU1 160610Z 05015KT M07/M09 A3047 RMK A01 T10671087  RH  086%=      5-min Rain = 0
KGU1 160611Z 05013KT M07/M09 A3047 RMK A01 T10671088  RH  086%=      5-min Rain = 0
KGU1 160612Z 05015KT M07/M09 A3047 RMK A01 T10671088  RH  086%=      5-min Rain = 0
KGU1 160613Z 05015KT M07/M09 A3047 RMK A01 T10671089  RH  085%=      5-min Rain = 0
KGU1 160614Z 05015KT M07/M09 A3047 RMK A01 T10671090  RH  085%=      5-min Rain = 0
KGU1 160615Z 05013G18KT M07/M09 A3047 RMK A01 T10671090  RH  085%=      5-min Rain = 0
KGU1 160616Z 05014KT M07/M09 A3047 RMK A01 T10671090  RH  085%=      5-min Rain = 0
KGU1 160617Z 05015KT M07/M09 A3047 RMK A01 T10671090  RH  085%=      5-min Rain = 0
KGU1 160618Z 05015KT M07/M09 A3047 RMK A01 T10671091  RH  084%=      5-min Rain = 0
KGU1 160619Z 05013KT M07/M09 A3047 RMK A01 T10671091  RH  084%=      5-min Rain = 0
KGU1 160620Z 05013KT M07/M09 A3046 RMK A01 T10671091  RH  084%=      5-min Rain = 0
KGU1 160621Z 05015KT M07/M09 A3046 RMK A01 T10671091  RH  084%=      5-min Rain = 0
KGU1 160622Z 05014KT M07/M09 A3046 RMK A01 T10671092  RH  083%=      5-min Rain = 0
KGU1 160623Z 06012G17KT M07/M09 A3046 RMK A01 T10661091  RH  084%=      5-min Rain = 0
KGU1 160624Z 06015KT M07/M09 A3046 RMK A01 T10661093  RH  082%=      5-min Rain = 0
KGU1 160625Z 05012KT M07/M09 A3046 RMK A01 T10661093  RH  083%=      5-min Rain = 0
KGU1 160626Z 06014KT M07/M09 A3046 RMK A01 T10661093  RH  082%=      5-min Rain = 0
KGU1 160627Z 06014KT M07/M09 A3046 RMK A01 T10661094  RH  082%=      5-min Rain = 0
KGU1 160628Z 05014KT M07/M10 A3046 RMK A01 T10661095  RH  081%=      5-min Rain = 0
KGU1 160629Z 05012KT M07/M09 A3046 RMK A01 T10661093  RH  082%=      5-min Rain = 0
KGU1 160630Z 06012G17KT M07/M09 A3046 RMK A01 T10661093  RH  082%=      5-min Rain = 0
KGU1 160631Z 05015KT M07/M10 A3046 RMK A01 T10661096  RH  081%=      5-min Rain = 0
KGU1 160632Z 06013KT M07/M10 A3046 RMK A01 T10671096  RH  080%=      5-min Rain = 0
KGU1 160633Z 05015G20KT M07/M10 A3046 RMK A01 T10661097  RH  080%=      5-min Rain = 0
KGU1 160634Z 05015KT M07/M10 A3046 RMK A01 T10661097  RH  080%=      5-min Rain = 0
KGU1 160635Z 06012G17KT M07/M10 A3046 RMK A01 T10661097  RH  080%=      5-min Rain = 0
KGU1 160636Z 06017KT M07/M10 A3046 RMK A01 T10661098  RH  079%=      5-min Rain = 0
KGU1 160637Z 05014KT M07/M10 A3046 RMK A01 T10661099  RH  079%=      5-min Rain = 0
KGU1 160638Z 05015KT M07/M10 A3047 RMK A01 T10661099  RH  078%=      5-min Rain = 0
KGU1 160639Z 05013KT M07/M10 A3047 RMK A01 T10661098  RH  079%=      5-min Rain = 0
KGU1 160640Z 05013KT M07/M10 A3047 RMK A01 T10661098  RH  079%=      5-min Rain = 0
KGU1 160641Z 05014KT M07/M10 A3047 RMK A01 T10661099  RH  078%=      5-min Rain = 0
KGU1 160642Z 05012KT M07/M10 A3047 RMK A01 T10661098  RH  079%=      5-min Rain = 0
KGU1 160643Z 05014KT M07/M10 A3047 RMK A01 T10661099  RH  078%=      5-min Rain = 0
KGU1 160644Z 05014KT M07/M10 A3047 RMK A01 T10661100  RH  078%=      5-min Rain = 0
KGU1 160645Z 05015KT M07/M10 A3047 RMK A01 T10651101  RH  077%=      5-min Rain = 0
KGU1 160646Z 05015G20KT M07/M10 A3047 RMK A01 T10651101  RH  077%=      5-min Rain = 0
KGU1 160647Z 05014KT M07/M10 A3047 RMK A01 T10651101  RH  076%=      5-min Rain = 0
KGU1 160648Z 05013KT M07/M10 A3047 RMK A01 T10651101  RH  076%=      5-min Rain = 0
KGU1 160649Z 06015KT M07/M10 A3047 RMK A01 T10651102  RH  076%=      5-min Rain = 0
KGU1 160650Z 05015G21KT M07/M10 A3047 RMK A01 T10651103  RH  075%=      5-min Rain = 0
KGU1 160651Z 05013KT M07/M10 A3047 RMK A01 T10651103  RH  075%=      5-min Rain = 0
KGU1 160652Z 05014KT M07/M10 A3047 RMK A01 T10651103  RH  075%=      5-min Rain = 0
KGU1 160653Z 05015KT M06/M10 A3047 RMK A01 T10641103  RH  075%=      5-min Rain = 0
KGU1 160654Z 05015KT M07/M10 A3047 RMK A01 T10651104  RH  075%=      5-min Rain = 0
KGU1 160655Z 04015KT M07/M11 A3047 RMK A01 T10651105  RH  074%=      5-min Rain = 0
KGU1 160656Z 05013KT M07/M11 A3047 RMK A01 T10651105  RH  074%=      5-min Rain = 0
KGU1 160657Z 06014G19KT M06/M11 A3047 RMK A01 T10641105  RH  074%=      5-min Rain = 0
KGU1 160658Z 05014G19KT M07/M11 A3047 RMK A01 T10651106  RH  073%=      5-min Rain = 0
KGU1 160659Z 04016G22KT M07/M11 A3047 RMK A01 T10651107  RH  073%=      5-min Rain = 0
KGU1 160700Z 05015KT M07/M11 A3047 RMK A01 T10651108  RH  072%=      5-min Rain = 0
KGU1 160701Z 05011KT M07/M11 A3047 RMK A01 T10651107  RH  073%=      5-min Rain = 0
KGU1 160702Z 05012G17KT M07/M11 A3047 RMK A01 T10651106  RH  073%=      5-min Rain = 0
KGU1 160703Z 05014KT M06/M11 A3047 RMK A01 T10641108  RH  072%=      5-min Rain = 0
KGU1 160704Z 06013G18KT M07/M11 A3047 RMK A01 T10651109  RH  072%=      5-min Rain = 0
KGU1 160705Z 05016KT M07/M11 A3047 RMK A01 T10651111  RH  071%=      5-min Rain = 0
KGU1 160706Z 05015KT M07/M11 A3047 RMK A01 T10651112  RH  070%=      5-min Rain = 0
KGU1 160707Z 05015KT M07/M11 A3047 RMK A01 T10651111  RH  070%=      5-min Rain = 0
KGU1 160708Z 05013KT M07/M11 A3047 RMK A01 T10651112  RH  070%=      5-min Rain = 0
KGU1 160709Z 05016KT M07/M11 A3047 RMK A01 T10651112  RH  070%=      5-min Rain = 0
KGU1 160710Z 05012G19KT M07/M11 A3047 RMK A01 T10651111  RH  070%=      5-min Rain = 0
KGU1 160711Z 05016KT M07/M11 A3047 RMK A01 T10651113  RH  070%=      5-min Rain = 0
KGU1 160712Z 05015KT M07/M11 A3047 RMK A01 T10651114  RH  069%=      5-min Rain = 0
KGU1 160713Z 05013KT M07/M11 A3047 RMK A01 T10651113  RH  069%=      5-min Rain = 0
KGU1 160714Z 05011KT M07/M11 A3047 RMK A01 T10651113  RH  070%=      5-min Rain = 0
KGU1 160715Z 05011KT M07/M11 A3048 RMK A01 T10651114  RH  069%=      5-min Rain = 0
KGU1 160716Z 04011KT M07/M11 A3048 RMK A01 T10651113  RH  069%=      5-min Rain = 0
KGU1 160717Z 05013KT M07/M12 A3048 RMK A01 T10651115  RH  068%=      5-min Rain = 0
KGU1 160718Z 05013KT M07/M12 A3048 RMK A01 T10651116  RH  068%=      5-min Rain = 0
KGU1 160719Z 04011KT M07/M12 A3048 RMK A01 T10651115  RH  068%=      5-min Rain = 0
KGU1 160720Z 05013G18KT M06/M12 A3048 RMK A01 T10641115  RH  068%=      5-min Rain = 0
KGU1 160721Z 05015KT M07/M12 A3048 RMK A01 T10651117  RH  067%=      5-min Rain = 0
KGU1 160722Z 04013KT M07/M12 A3048 RMK A01 T10651118  RH  067%=      5-min Rain = 0
KGU1 160723Z 04011G16KT M07/M12 A3047 RMK A01 T10651116  RH  068%=      5-min Rain = 0
KGU1 160724Z 04014KT M07/M12 A3048 RMK A01 T10651118  RH  067%=      5-min Rain = 0
KGU1 160725Z 05012KT M07/M12 A3048 RMK A01 T10651117  RH  067%=      5-min Rain = 0
KGU1 160726Z 05010G16KT M07/M12 A3047 RMK A01 T10651117  RH  067%=      5-min Rain = 0
KGU1 160727Z 05011KT M07/M12 A3048 RMK A01 T10651117  RH  067%=      5-min Rain = 0
KGU1 160728Z 04010KT M07/M12 A3048 RMK A01 T10651117  RH  067%=      5-min Rain = 0
KGU1 160729Z 04012KT M06/M12 A3048 RMK A01 T10641118  RH  067%=      5-min Rain = 0
KGU1 160730Z 04013KT M06/M12 A3048 RMK A01 T10641119  RH  066%=      5-min Rain = 0
KGU1 160731Z 04012KT M06/M12 A3048 RMK A01 T10641119  RH  066%=      5-min Rain = 0
KGU1 160732Z 04013KT M06/M12 A3048 RMK A01 T10641119  RH  066%=      5-min Rain = 0
KGU1 160733Z 04014KT M06/M12 A3048 RMK A01 T10641120  RH  066%=      5-min Rain = 0
KGU1 160734Z 04012KT M06/M12 A3048 RMK A01 T10641120  RH  065%=      5-min Rain = 0
KGU1 160735Z 04011KT M07/M12 A3048 RMK A01 T10651120  RH  066%=      5-min Rain = 0
KGU1 160736Z 04011KT M06/M12 A3048 RMK A01 T10641120  RH  066%=      5-min Rain = 0
KGU1 160737Z 05012KT M07/M12 A3048 RMK A01 T10651120  RH  066%=      5-min Rain = 0
KGU1 160738Z 04014KT M07/M12 A3048 RMK A01 T10651121  RH  065%=      5-min Rain = 0
KGU1 160739Z 04012KT M07/M12 A3048 RMK A01 T10651121  RH  065%=      5-min Rain = 0
KGU1 160740Z 04015KT M07/M12 A3048 RMK A01 T10651122  RH  064%=      5-min Rain = 0
KGU1 160741Z 05015KT M07/M12 A3048 RMK A01 T10651123  RH  064%=      5-min Rain = 0
KGU1 160742Z 05014KT M07/M12 A3048 RMK A01 T10651124  RH  064%=      5-min Rain = 0
KGU1 160743Z 04014KT M07/M13 A3048 RMK A01 T10651125  RH  064%=      5-min Rain = 0
KGU1 160744Z 05014KT M07/M13 A3048 RMK A01 T10661126  RH  063%=      5-min Rain = 0
KGU1 160745Z 05014KT M07/M13 A3047 RMK A01 T10661127  RH  063%=      5-min Rain = 0
KGU1 160746Z 04013KT M07/M13 A3047 RMK A01 T10661125  RH  064%=      5-min Rain = 0
KGU1 160747Z 05013KT M07/M13 A3047 RMK A01 T10661126  RH  063%=      5-min Rain = 0
KGU1 160748Z 05012KT M07/M13 A3047 RMK A01 T10661125  RH  064%=      5-min Rain = 0
KGU1 160749Z 04012KT M07/M13 A3047 RMK A01 T10661125  RH  064%=      5-min Rain = 0
KGU1 160750Z 04013KT M07/M13 A3047 RMK A01 T10661125  RH  063%=      5-min Rain = 0
KGU1 160751Z 05015KT M07/M13 A3047 RMK A01 T10661126  RH  063%=      5-min Rain = 0
KGU1 160752Z 05012KT M07/M13 A3047 RMK A01 T10661127  RH  063%=      5-min Rain = 0
KGU1 160753Z 04013KT M07/M13 A3047 RMK A01 T10661127  RH  063%=      5-min Rain = 0
KGU1 160754Z 04014KT M07/M13 A3047 RMK A01 T10661128  RH  063%=      5-min Rain = 0
KGU1 160755Z 04013KT M07/M13 A3047 RMK A01 T10661128  RH  062%=      5-min Rain = 0
KGU1 160756Z 04013KT M07/M13 A3047 RMK A01 T10661128  RH  062%=      5-min Rain = 0
KGU1 160757Z 05012KT M07/M13 A3047 RMK A01 T10661128  RH  062%=      5-min Rain = 0
KGU1 160758Z 05012G17KT M07/M13 A3047 RMK A01 T10661128  RH  062%=      5-min Rain = 0
KGU1 160759Z 04015KT M07/M13 A3047 RMK A01 T10661130  RH  062%=      5-min Rain = 0
KGU1 160800Z 05013KT M07/M13 A3047 RMK A01 T10661130  RH  062%=      5-min Rain = 0
KGU1 160801Z 05015KT M07/M13 A3047 RMK A01 T10661131  RH  061%=      5-min Rain = 0
KGU1 160802Z 04011KT M07/M13 A3047 RMK A01 T10671129  RH  062%=      5-min Rain = 0
KGU1 160803Z 05014KT M07/M13 A3047 RMK A01 T10661130  RH  061%=      5-min Rain = 0
KGU1 160804Z 05013KT M07/M13 A3047 RMK A01 T10661131  RH  061%=      5-min Rain = 0
KGU1 160805Z 04012KT M07/M13 A3048 RMK A01 T10671130  RH  061%=      5-min Rain = 0
KGU1 160806Z 05012G17KT M07/M13 A3048 RMK A01 T10661130  RH  061%=      5-min Rain = 0
KGU1 160807Z 05013KT M07/M13 A3047 RMK A01 T10671131  RH  061%=      5-min Rain = 0
KGU1 160808Z 05014KT M07/M13 A3048 RMK A01 T10661131  RH  061%=      5-min Rain = 0
KGU1 160809Z 05014KT M07/M13 A3048 RMK A01 T10671133  RH  060%=      5-min Rain = 0
KGU1 160810Z 05012KT M07/M13 A3047 RMK A01 T10671132  RH  061%=      5-min Rain = 0
KGU1 160811Z 05014KT M07/M13 A3047 RMK A01 T10671132  RH  061%=      5-min Rain = 0
KGU1 160812Z 05015KT M07/M13 A3047 RMK A01 T10671132  RH  061%=      5-min Rain = 0
KGU1 160813Z 05014KT M07/M13 A3047 RMK A01 T10671132  RH  061%=      5-min Rain = 0
KGU1 160814Z 05012KT M07/M13 A3047 RMK A01 T10671132  RH  061%=      5-min Rain = 0
KGU1 160815Z 05011G16KT M07/M13 A3047 RMK A01 T10671131  RH  061%=      5-min Rain = 0
KGU1 160816Z 04012KT M07/M13 A3048 RMK A01 T10671132  RH  061%=      5-min Rain = 0
KGU1 160817Z 04013KT M07/M13 A3048 RMK A01 T10671131  RH  061%=      5-min Rain = 0
KGU1 160818Z 04010KT M07/M13 A3048 RMK A01 T10661131  RH  061%=      5-min Rain = 0
KGU1 160819Z 04012KT M07/M13 A3048 RMK A01 T10661132  RH  061%=      5-min Rain = 0
KGU1 160820Z 04013KT M07/M13 A3048 RMK A01 T10661132  RH  060%=      5-min Rain = 0
KGU1 160821Z 04011KT M07/M13 A3048 RMK A01 T10661132  RH  061%=      5-min Rain = 0
KGU1 160822Z 05012G17KT M07/M13 A3048 RMK A01 T10661132  RH  061%=      5-min Rain = 0
KGU1 160823Z 05013KT M07/M13 A3048 RMK A01 T10661133  RH  060%=      5-min Rain = 0
KGU1 160824Z 04013KT M07/M13 A3048 RMK A01 T10671133  RH  060%=      5-min Rain = 0
KGU1 160825Z 05013KT M07/M13 A3048 RMK A01 T10671134  RH  060%=      5-min Rain = 0
KGU1 160826Z 05014KT M07/M14 A3048 RMK A01 T10671136  RH  059%=      5-min Rain = 0
KGU1 160827Z 05012KT M07/M14 A3048 RMK A01 T10681135  RH  059%=      5-min Rain = 0
KGU1 160828Z 04010KT M07/M13 A3048 RMK A01 T10671134  RH  060%=      5-min Rain = 0
KGU1 160829Z 05009KT M07/M13 A3047 RMK A01 T10671133  RH  060%=      5-min Rain = 0
KGU1 160830Z 05010KT M07/M13 A3047 RMK A01 T10671134  RH  060%=      5-min Rain = 0
KGU1 160831Z 05010KT M07/M13 A3047 RMK A01 T10671134  RH  060%=      5-min Rain = 0
KGU1 160832Z 06013KT M07/M14 A3047 RMK A01 T10671136  RH  059%=      5-min Rain = 0
KGU1 160833Z 05012KT M07/M14 A3047 RMK A01 T10681137  RH  059%=      5-min Rain = 0
KGU1 160834Z 05012KT M07/M14 A3047 RMK A01 T10681136  RH  059%=      5-min Rain = 0
KGU1 160835Z 05013KT M07/M14 A3047 RMK A01 T10681137  RH  059%=      5-min Rain = 0
KGU1 160836Z 05012KT M07/M14 A3047 RMK A01 T10681136  RH  059%=      5-min Rain = 0
KGU1 160837Z 05014KT M07/M14 A3047 RMK A01 T10681137  RH  059%=      5-min Rain = 0
KGU1 160838Z 05013KT M07/M14 A3048 RMK A01 T10691137  RH  059%=      5-min Rain = 0
KGU1 160839Z 05014KT M07/M14 A3048 RMK A01 T10681137  RH  059%=      5-min Rain = 0
KGU1 160840Z 05012KT M07/M14 A3048 RMK A01 T10691136  RH  059%=      5-min Rain = 0
KGU1 160841Z 05012KT M07/M14 A3048 RMK A01 T10681136  RH  060%=      5-min Rain = 0
KGU1 160842Z 05013KT M07/M14 A3048 RMK A01 T10681136  RH  059%=      5-min Rain = 0
KGU1 160843Z 04011KT M07/M14 A3048 RMK A01 T10681136  RH  060%=      5-min Rain = 0
KGU1 160844Z 05012KT M07/M14 A3048 RMK A01 T10681135  RH  060%=      5-min Rain = 0
KGU1 160845Z 05014KT M07/M14 A3047 RMK A01 T10681136  RH  060%=      5-min Rain = 0
KGU1 160846Z 05014KT M07/M14 A3048 RMK A01 T10681136  RH  060%=      5-min Rain = 0
KGU1 160847Z 04013KT M07/M14 A3048 RMK A01 T10681135  RH  060%=      5-min Rain = 0
KGU1 160848Z 05011KT M07/M13 A3048 RMK A01 T10681134  RH  060%=      5-min Rain = 0
KGU1 160849Z 05010KT M07/M13 A3047 RMK A01 T10681134  RH  060%=      5-min Rain = 0
KGU1 160850Z 05011KT M07/M13 A3047 RMK A01 T10681134  RH  060%=      5-min Rain = 0
KGU1 160851Z 05012KT M07/M13 A3047 RMK A01 T10681134  RH  060%=      5-min Rain = 0
KGU1 160852Z 04012KT M07/M14 A3047 RMK A01 T10681135  RH  060%=      5-min Rain = 0
KGU1 160853Z 05011KT M07/M14 A3047 RMK A01 T10681135  RH  060%=      5-min Rain = 0
KGU1 160854Z 05012KT M07/M14 A3048 RMK A01 T10681135  RH  060%=      5-min Rain = 0
KGU1 160855Z 05014KT M07/M14 A3048 RMK A01 T10681135  RH  060%=      5-min Rain = 0
KGU1 160856Z 05015KT M07/M14 A3047 RMK A01 T10681137  RH  059%=      5-min Rain = 0
KGU1 160857Z 06014KT M07/M14 A3048 RMK A01 T10691137  RH  059%=      5-min Rain = 0
KGU1 160858Z 05013KT M07/M14 A3048 RMK A01 T10691136  RH  059%=      5-min Rain = 0
KGU1 160859Z 05011KT M07/M14 A3048 RMK A01 T10691136  RH  060%=      5-min Rain = 0
KGU1 160900Z 05012G17KT M07/M14 A3047 RMK A01 T10691136  RH  060%=      5-min Rain = 0
KGU1 160901Z 05012KT M07/M14 A3047 RMK A01 T10681137  RH  059%=      5-min Rain = 0
KGU1 160902Z 06012KT M07/M14 A3047 RMK A01 T10691139  RH  059%=      5-min Rain = 0
KGU1 160903Z 06014KT M07/M14 A3047 RMK A01 T10701139  RH  059%=      5-min Rain = 0
KGU1 160904Z 05013KT M07/M14 A3047 RMK A01 T10701139  RH  059%=      5-min Rain = 0
KGU1 160905Z 05011KT M07/M14 A3048 RMK A01 T10701139  RH  059%=      5-min Rain = 0
KGU1 160906Z 05012KT M07/M14 A3048 RMK A01 T10711140  RH  059%=      5-min Rain = 0
KGU1 160907Z 05011KT M07/M14 A3048 RMK A01 T10711140  RH  059%=      5-min Rain = 0
KGU1 160908Z 05014KT M07/M14 A3048 RMK A01 T10711141  RH  058%=      5-min Rain = 0
KGU1 160909Z 05013KT M07/M14 A3048 RMK A01 T10711141  RH  058%=      5-min Rain = 0
KGU1 160910Z 05012KT M07/M14 A3048 RMK A01 T10721141  RH  059%=      5-min Rain = 0
KGU1 160911Z 05013KT M07/M14 A3048 RMK A01 T10711141  RH  059%=      5-min Rain = 0
KGU1 160912Z 05012G18KT M07/M14 A3048 RMK A01 T10721142  RH  058%=      5-min Rain = 0
KGU1 160913Z 05013G19KT M07/M14 A3048 RMK A01 T10721142  RH  058%=      5-min Rain = 0
KGU1 160914Z 05014KT M07/M14 A3048 RMK A01 T10721143  RH  058%=      5-min Rain = 0
KGU1 160915Z 04016KT M07/M14 A3048 RMK A01 T10731144  RH  057%=      5-min Rain = 0
KGU1 160916Z 05017KT M07/M15 A3048 RMK A01 T10731145  RH  057%=      5-min Rain = 0
KGU1 160917Z 05017KT M07/M15 A3048 RMK A01 T10741145  RH  057%=      5-min Rain = 0
KGU1 160918Z 05016KT M07/M15 A3048 RMK A01 T10741146  RH  057%=      5-min Rain = 0
KGU1 160919Z 05014KT M07/M15 A3048 RMK A01 T10741145  RH  058%=      5-min Rain = 0
KGU1 160920Z 05015KT M07/M15 A3048 RMK A01 T10741146  RH  057%=      5-min Rain = 0
KGU1 160921Z 05016G21KT M08/M15 A3048 RMK A01 T10751147  RH  057%=      5-min Rain = 0
KGU1 160922Z 05016G21KT M08/M15 A3048 RMK A01 T10751147  RH  057%=      5-min Rain = 0
KGU1 160923Z 05016G22KT M08/M15 A3048 RMK A01 T10751148  RH  057%=      5-min Rain = 0
KGU1 160924Z 05016KT M08/M15 A3048 RMK A01 T10761148  RH  057%=      5-min Rain = 0
KGU1 160925Z 05018KT M08/M15 A3048 RMK A01 T10761148  RH  057%=      5-min Rain = 0
KGU1 160926Z 04018KT M08/M15 A3048 RMK A01 T10761149  RH  057%=      5-min Rain = 0
KGU1 160927Z 04016G21KT M08/M15 A3048 RMK A01 T10761149  RH  057%=      5-min Rain = 0
KGU1 160928Z 04018KT M08/M15 A3048 RMK A01 T10761150  RH  056%=      5-min Rain = 0
KGU1 160929Z 05014G19KT M08/M15 A3048 RMK A01 T10761149  RH  057%=      5-min Rain = 0
KGU1 160930Z 05014G19KT M08/M15 A3048 RMK A01 T10761150  RH  056%=      5-min Rain = 0
KGU1 160931Z 05016G21KT M08/M15 A3048 RMK A01 T10761152  RH  055%=      5-min Rain = 0
KGU1 160932Z 05015KT M08/M15 A3048 RMK A01 T10771153  RH  055%=      5-min Rain = 0
KGU1 160933Z 04014G19KT M08/M15 A3049 RMK A01 T10761152  RH  056%=      5-min Rain = 0
KGU1 160934Z 04013KT M08/M15 A3049 RMK A01 T10771153  RH  055%=      5-min Rain = 0
KGU1 160935Z 05013KT M08/M15 A3048 RMK A01 T10761153  RH  055%=      5-min Rain = 0
KGU1 160936Z 05012G17KT M08/M16 A3048 RMK A01 T10771155  RH  054%=      5-min Rain = 0
KGU1 160937Z 05014KT M08/M16 A3048 RMK A01 T10761157  RH  053%=      5-min Rain = 0
KGU1 160938Z 05015KT M08/M16 A3048 RMK A01 T10761159  RH  053%=      5-min Rain = 0
KGU1 160939Z 04014KT M08/M16 A3048 RMK A01 T10761158  RH  053%=      5-min Rain = 0
KGU1 160940Z 05017KT M08/M16 A3048 RMK A01 T10761159  RH  053%=      5-min Rain = 0
KGU1 160941Z 04014G19KT M08/M16 A3048 RMK A01 T10761159  RH  052%=      5-min Rain = 0
KGU1 160942Z 05015KT M08/M16 A3048 RMK A01 T10771160  RH  052%=      5-min Rain = 0
KGU1 160943Z 05014KT M08/M16 A3048 RMK A01 T10761159  RH  052%=      5-min Rain = 0
KGU1 160944Z 05014KT M08/M16 A3048 RMK A01 T10761159  RH  052%=      5-min Rain = 0
KGU1 160945Z 05013KT M08/M16 A3048 RMK A01 T10761159  RH  052%=      5-min Rain = 0
KGU1 160946Z 05011KT M08/M16 A3049 RMK A01 T10761159  RH  053%=      5-min Rain = 0
KGU1 160947Z 04013KT M08/M16 A3049 RMK A01 T10761160  RH  052%=      5-min Rain = 0
KGU1 160948Z 04015KT M08/M16 A3049 RMK A01 T10761160  RH  052%=      5-min Rain = 0
KGU1 160949Z 04011KT M08/M16 A3049 RMK A01 T10761159  RH  052%=      5-min Rain = 0
KGU1 160950Z 04012KT M08/M16 A3049 RMK A01 T10761159  RH  052%=      5-min Rain = 0
KGU1 160951Z 04011KT M08/M16 A3049 RMK A01 T10761159  RH  052%=      5-min Rain = 0
KGU1 160952Z 05012KT M08/M16 A3049 RMK A01 T10761161  RH  051%=      5-min Rain = 0
KGU1 160953Z 04013KT M08/M16 A3049 RMK A01 T10761163  RH  051%=      5-min Rain = 0
KGU1 160954Z 05014KT M08/M16 A3048 RMK A01 T10761164  RH  050%=      5-min Rain = 0
KGU1 160955Z 05013KT M08/M16 A3048 RMK A01 T10761164  RH  050%=      5-min Rain = 0
KGU1 160956Z 04012KT M08/M16 A3048 RMK A01 T10761163  RH  050%=      5-min Rain = 0
KGU1 160957Z 04012KT M08/M16 A3048 RMK A01 T10761164  RH  050%=      5-min Rain = 0
KGU1 160958Z 04012KT M08/M16 A3048 RMK A01 T10761163  RH  051%=      5-min Rain = 0
KGU1 160959Z 05014KT M08/M17 A3049 RMK A01 T10761165  RH  050%=      5-min Rain = 0
KGU1 161000Z 04012KT M08/M16 A3048 RMK A01 T10761163  RH  051%=      5-min Rain = 0
KGU1 161001Z 05013KT M08/M17 A3048 RMK A01 T10761165  RH  050%=      5-min Rain = 0
KGU1 161002Z 05012KT M08/M16 A3048 RMK A01 T10761164  RH  050%=      5-min Rain = 0
KGU1 161003Z 05013KT M08/M16 A3048 RMK A01 T10761164  RH  050%=      5-min Rain = 0
KGU1 161004Z 05014KT M08/M17 A3048 RMK A01 T10761165  RH  050%=      5-min Rain = 0
KGU1 161005Z 05016KT M08/M17 A3048 RMK A01 T10771166  RH  050%=      5-min Rain = 0
KGU1 161006Z 04014KT M08/M17 A3048 RMK A01 T10771165  RH  050%=      5-min Rain = 0
KGU1 161007Z 04014KT M08/M17 A3048 RMK A01 T10771165  RH  050%=      5-min Rain = 0
KGU1 161008Z 05012KT M08/M17 A3048 RMK A01 T10771165  RH  050%=      5-min Rain = 0
KGU1 161009Z 05016KT M08/M17 A3048 RMK A01 T10771167  RH  049%=      5-min Rain = 0
KGU1 161010Z 05013G18KT M08/M17 A3048 RMK A01 T10771167  RH  049%=      5-min Rain = 0
KGU1 161011Z 05012G18KT M08/M17 A3048 RMK A01 T10771166  RH  050%=      5-min Rain = 0
KGU1 161012Z 05013KT M08/M17 A3048 RMK A01 T10771166  RH  050%=      5-min Rain = 0
KGU1 161013Z 05012KT M08/M17 A3048 RMK A01 T10771165  RH  050%=      5-min Rain = 0
KGU1 161014Z 05015G20KT M08/M17 A3048 RMK A01 T10771166  RH  050%=      5-min Rain = 0
KGU1 161015Z 05014KT M08/M17 A3048 RMK A01 T10771165  RH  050%=      5-min Rain = 0
KGU1 161016Z 05015KT M08/M17 A3048 RMK A01 T10771166  RH  050%=      5-min Rain = 0
KGU1 161017Z 05013KT M08/M17 A3048 RMK A01 T10771167  RH  049%=      5-min Rain = 0
KGU1 161018Z 05015KT M08/M17 A3048 RMK A01 T10771167  RH  049%=      5-min Rain = 0
KGU1 161019Z 05013KT M08/M17 A3048 RMK A01 T10771167  RH  049%=      5-min Rain = 0
KGU1 161020Z 05011KT M08/M17 A3048 RMK A01 T10761166  RH  050%=      5-min Rain = 0
KGU1 161021Z 05013KT M08/M17 A3048 RMK A01 T10761167  RH  049%=      5-min Rain = 0
KGU1 161022Z 05012G18KT M08/M17 A3048 RMK A01 T10761166  RH  049%=      5-min Rain = 0
KGU1 161023Z 05013KT M08/M17 A3048 RMK A01 T10761166  RH  049%=      5-min Rain = 0
KGU1 161024Z 05014KT M08/M17 A3048 RMK A01 T10761167  RH  049%=      5-min Rain = 0
KGU1 161025Z 05015KT M08/M17 A3048 RMK A01 T10761168  RH  049%=      5-min Rain = 0
KGU1 161026Z 05013KT M08/M17 A3048 RMK A01 T10761168  RH  049%=      5-min Rain = 0
KGU1 161027Z 05013KT M08/M17 A3048 RMK A01 T10761168  RH  049%=      5-min Rain = 0
KGU1 161028Z 05013KT M08/M17 A3048 RMK A01 T10771168  RH  049%=      5-min Rain = 0
KGU1 161029Z 05015KT M08/M17 A3048 RMK A01 T10761168  RH  049%=      5-min Rain = 0
KGU1 161030Z 05014KT M08/M17 A3048 RMK A01 T10761169  RH  048%=      5-min Rain = 0
KGU1 161031Z 05011G16KT M08/M17 A3048 RMK A01 T10761168  RH  049%=      5-min Rain = 0
KGU1 161032Z 05013KT M08/M17 A3048 RMK A01 T10761167  RH  049%=      5-min Rain = 0
KGU1 161033Z 05013KT M08/M17 A3048 RMK A01 T10761168  RH  048%=      5-min Rain = 0
KGU1 161034Z 04015KT M08/M17 A3048 RMK A01 T10751170  RH  047%=      5-min Rain = 0
KGU1 161035Z 04014KT M08/M17 A3048 RMK A01 T10751169  RH  048%=      5-min Rain = 0
KGU1 161036Z 04011KT M08/M17 A3048 RMK A01 T10751167  RH  049%=      5-min Rain = 0
KGU1 161037Z 04015KT M08/M17 A3048 RMK A01 T10751171  RH  047%=      5-min Rain = 0
KGU1 161038Z 04015KT M08/M17 A3048 RMK A01 T10751171  RH  047%=      5-min Rain = 0
KGU1 161039Z 05015KT M08/M17 A3048 RMK A01 T10751172  RH  047%=      5-min Rain = 0
KGU1 161040Z 05011KT M08/M17 A3048 RMK A01 T10751169  RH  048%=      5-min Rain = 0
KGU1 161041Z 05011KT M08/M17 A3047 RMK A01 T10751167  RH  048%=      5-min Rain = 0
KGU1 161042Z 04012KT M08/M17 A3048 RMK A01 T10751169  RH  048%=      5-min Rain = 0
KGU1 161043Z 05013KT M08/M17 A3047 RMK A01 T10751169  RH  047%=      5-min Rain = 0
KGU1 161044Z 05014KT M08/M17 A3047 RMK A01 T10751170  RH  047%=      5-min Rain = 0
KGU1 161045Z 05013KT M08/M17 A3047 RMK A01 T10751170  RH  048%=      5-min Rain = 0
KGU1 161046Z 05014KT M08/M17 A3047 RMK A01 T10751169  RH  048%=      5-min Rain = 0
KGU1 161047Z 05016KT M08/M17 A3048 RMK A01 T10751170  RH  048%=      5-min Rain = 0
KGU1 161048Z 04015KT M08/M17 A3048 RMK A01 T10751169  RH  048%=      5-min Rain = 0
KGU1 161049Z 04013KT M08/M17 A3048 RMK A01 T10751169  RH  048%=      5-min Rain = 0
KGU1 161050Z 04015KT M08/M17 A3048 RMK A01 T10751173  RH  046%=      5-min Rain = 0
KGU1 161051Z 03018KT M08/M18 A3048 RMK A01 T10751181  RH  043%=      5-min Rain = 0
KGU1 161052Z 03012KT M07/M19 A3048 RMK A01 T10741185  RH  042%=      5-min Rain = 0
KGU1 161053Z 04016G21KT M07/M19 A3048 RMK A01 T10741188  RH  041%=      5-min Rain = 0
KGU1 161054Z 04015KT M07/M19 A3048 RMK A01 T10741190  RH  040%=      5-min Rain = 0
KGU1 161055Z 04014KT M07/M19 A3048 RMK A01 T10741187  RH  041%=      5-min Rain = 0
KGU1 161056Z 04013G19KT M07/M19 A3048 RMK A01 T10741185  RH  041%=      5-min Rain = 0
KGU1 161057Z 05017KT M07/M19 A3048 RMK A01 T10741190  RH  040%=      5-min Rain = 0
KGU1 161058Z 04014G19KT M07/M19 A3048 RMK A01 T10741190  RH  040%=      5-min Rain = 0
KGU1 161059Z 05015G20KT M07/M19 A3048 RMK A01 T10741193  RH  039%=      5-min Rain = 0
KGU1 161100Z 05013KT M08/M19 A3048 RMK A01 T10751192  RH  039%=      5-min Rain = 0
KGU1 161101Z 05014KT M07/M19 A3048 RMK A01 T10741193  RH  039%=      5-min Rain = 0
KGU1 161102Z 04012KT M08/M19 A3048 RMK A01 T10751193  RH  039%=      5-min Rain = 0
KGU1 161103Z 04015G20KT M08/M20 A3048 RMK A01 T10751197  RH  038%=      5-min Rain = 0
KGU1 161104Z 04015KT M07/M20 A3048 RMK A01 T10741203  RH  036%=      5-min Rain = 0
KGU1 161105Z 04015KT M07/M21 A3048 RMK A01 T10741205  RH  035%=      5-min Rain = 0
KGU1 161106Z 04014KT M08/M21 A3048 RMK A01 T10751206  RH  035%=      5-min Rain = 0
KGU1 161107Z 05015KT M08/M21 A3048 RMK A01 T10751205  RH  035%=      5-min Rain = 0
KGU1 161108Z 05014KT M08/M20 A3048 RMK A01 T10751204  RH  036%=      5-min Rain = 0
KGU1 161109Z 05013KT M08/M20 A3048 RMK A01 T10751201  RH  037%=      5-min Rain = 0
KGU1 161110Z 05013KT M08/M20 A3048 RMK A01 T10751199  RH  037%=      5-min Rain = 0
KGU1 161111Z 03015KT M08/M20 A3048 RMK A01 T10761202  RH  036%=      5-min Rain = 0
KGU1 161112Z 03013G18KT M08/M20 A3048 RMK A01 T10751203  RH  036%=      5-min Rain = 0
KGU1 161113Z 03015KT M08/M21 A3048 RMK A01 T10751209  RH  034%=      5-min Rain = 0
KGU1 161114Z 04013G19KT M08/M21 A3048 RMK A01 T10751208  RH  034%=      5-min Rain = 0
KGU1 161115Z 04013KT M08/M20 A3048 RMK A01 T10751204  RH  035%=      5-min Rain = 0
KGU1 161116Z 04011G18KT M08/M20 A3048 RMK A01 T10751200  RH  037%=      5-min Rain = 0
KGU1 161117Z 04016KT M08/M20 A3048 RMK A01 T10751202  RH  036%=      5-min Rain = 0
KGU1 161118Z 04013KT M08/M20 A3048 RMK A01 T10761198  RH  038%=      5-min Rain = 0
KGU1 161119Z 04014KT M08/M20 A3048 RMK A01 T10761196  RH  038%=      5-min Rain = 0
KGU1 161120Z 04015KT M08/M20 A3048 RMK A01 T10761199  RH  037%=      5-min Rain = 0
KGU1 161121Z 04012KT M08/M20 A3048 RMK A01 T10761201  RH  037%=      5-min Rain = 0
KGU1 161122Z 04013KT M08/M20 A3048 RMK A01 T10761204  RH  036%=      5-min Rain = 0
KGU1 161123Z 04011KT M08/M20 A3048 RMK A01 T10761201  RH  037%=      5-min Rain = 0
KGU1 161124Z 04011KT M08/M20 A3048 RMK A01 T10751203  RH  036%=      5-min Rain = 0
KGU1 161125Z 04013KT M08/M21 A3048 RMK A01 T10761205  RH  036%=      5-min Rain = 0
KGU1 161126Z 05012KT M08/M21 A3048 RMK A01 T10761206  RH  035%=      5-min Rain = 0
KGU1 161127Z 04011KT M08/M20 A3048 RMK A01 T10761202  RH  036%=      5-min Rain = 0
KGU1 161128Z 05012KT M08/M20 A3048 RMK A01 T10761199  RH  037%=      5-min Rain = 0
KGU1 161129Z 04014G19KT M08/M20 A3048 RMK A01 T10761204  RH  036%=      5-min Rain = 0
KGU1 161130Z 04011KT M08/M21 A3048 RMK A01 T10751212  RH  033%=      5-min Rain = 0
KGU1 161131Z 05011KT M08/M20 A3048 RMK A01 T10751200  RH  037%=      5-min Rain = 0
KGU1 161132Z 04012G17KT M08/M21 A3048 RMK A01 T10751205  RH  036%=      5-min Rain = 0
KGU1 161133Z 04012KT M08/M21 A3048 RMK A01 T10751205  RH  035%=      5-min Rain = 0
KGU1 161134Z 04013KT M08/M20 A3048 RMK A01 T10761203  RH  036%=      5-min Rain = 0
KGU1 161135Z 04014KT M08/M20 A3048 RMK A01 T10761200  RH  037%=      5-min Rain = 0
KGU1 161136Z 04012KT M08/M20 A3048 RMK A01 T10761203  RH  036%=      5-min Rain = 0
KGU1 161137Z 04014KT M08/M20 A3048 RMK A01 T10761195  RH  039%=      5-min Rain = 0
KGU1 161138Z 04012KT M08/M19 A3048 RMK A01 T10771193  RH  040%=      5-min Rain = 0
KGU1 161139Z 05011KT M08/M19 A3048 RMK A01 T10771189  RH  041%=      5-min Rain = 0
KGU1 161140Z 05012KT M08/M19 A3048 RMK A01 T10771188  RH  042%=      5-min Rain = 0
KGU1 161141Z 04014KT M08/M19 A3048 RMK A01 T10781189  RH  041%=      5-min Rain = 0
KGU1 161142Z 05012KT M08/M19 A3048 RMK A01 T10781190  RH  041%=      5-min Rain = 0
KGU1 161143Z 05012KT M08/M19 A3048 RMK A01 T10781187  RH  042%=      5-min Rain = 0
KGU1 161144Z 05013KT M08/M19 A3048 RMK A01 T10781185  RH  043%=      5-min Rain = 0
KGU1 161145Z 05013G18KT M08/M18 A3048 RMK A01 T10791183  RH  044%=      5-min Rain = 0
KGU1 161146Z 05016KT M08/M18 A3048 RMK A01 T10791184  RH  044%=      5-min Rain = 0
KGU1 161147Z 05013KT M08/M18 A3048 RMK A01 T10791182  RH  045%=      5-min Rain = 0
KGU1 161148Z 05012KT M08/M18 A3048 RMK A01 T10791179  RH  045%=      5-min Rain = 0
KGU1 161149Z 04013KT M08/M18 A3048 RMK A01 T10791180  RH  045%=      5-min Rain = 0
KGU1 161150Z 05014KT M08/M18 A3048 RMK A01 T10801180  RH  045%=      5-min Rain = 0
KGU1 161151Z 05014KT M08/M18 A3049 RMK A01 T10801181  RH  045%=      5-min Rain = 0
KGU1 161152Z 05017KT M08/M18 A3048 RMK A01 T10801182  RH  045%=      5-min Rain = 0
KGU1 161153Z 05013KT M08/M18 A3048 RMK A01 T10801184  RH  044%=      5-min Rain = 0
KGU1 161154Z 04015KT M08/M19 A3049 RMK A01 T10801185  RH  043%=      5-min Rain = 0
KGU1 161155Z 04017KT M08/M19 A3048 RMK A01 T10801186  RH  043%=      5-min Rain = 0
KGU1 161156Z 05017KT M08/M19 A3049 RMK A01 T10801189  RH  042%=      5-min Rain = 0
KGU1 161157Z 04016KT M08/M19 A3049 RMK A01 T10801191  RH  041%=      5-min Rain = 0
KGU1 161158Z 04015KT M08/M19 A3048 RMK A01 T10801193  RH  041%=      5-min Rain = 0
KGU1 161159Z 04014KT M08/M21 A3049 RMK A01 T10801205  RH  037%=      5-min Rain = 0
KGU1 161200Z 04012KT M08/M21 A3049 RMK A01 T10801210  RH  035%=      5-min Rain = 0
KGU1 161201Z 04013G18KT M08/M21 A3049 RMK A01 T10791207  RH  036%=      5-min Rain = 0
KGU1 161202Z 04014KT M08/M20 A3049 RMK A01 T10791201  RH  038%=      5-min Rain = 0
KGU1 161203Z 04014KT M08/M20 A3049 RMK A01 T10791197  RH  039%=      5-min Rain = 0
KGU1 161204Z 05013KT M08/M20 A3049 RMK A01 T10791197  RH  039%=      5-min Rain = 0
KGU1 161205Z 04013G18KT M08/M20 A3049 RMK A01 T10791198  RH  039%=      5-min Rain = 0
KGU1 161206Z 03015KT M08/M21 A3049 RMK A01 T10791209  RH  035%=      5-min Rain = 0
KGU1 161207Z 05010KT M08/M20 A3049 RMK A01 T10791204  RH  037%=      5-min Rain = 0
KGU1 161208Z 05014KT M08/M20 A3049 RMK A01 T10791200  RH  038%=      5-min Rain = 0
KGU1 161209Z 05013KT M08/M20 A3049 RMK A01 T10791202  RH  038%=      5-min Rain = 0
KGU1 161210Z 05014KT M08/M20 A3049 RMK A01 T10801200  RH  038%=      5-min Rain = 0
KGU1 161211Z 03016KT M08/M21 A3049 RMK A01 T10801210  RH  035%=      5-min Rain = 0
KGU1 161212Z 04011G16KT M08/M22 A3049 RMK A01 T10791218  RH  033%=      5-min Rain = 0
KGU1 161213Z 05014KT M08/M21 A3049 RMK A01 T10791212  RH  034%=      5-min Rain = 0
KGU1 161214Z 05014KT M08/M21 A3049 RMK A01 T10801213  RH  034%=      5-min Rain = 0
KGU1 161215Z 05013KT M08/M22 A3049 RMK A01 T10791215  RH  033%=      5-min Rain = 0
KGU1 161216Z 05014KT M08/M22 A3049 RMK A01 T10791216  RH  033%=      5-min Rain = 0
KGU1 161217Z 05015KT M08/M22 A3049 RMK A01 T10791221  RH  032%=      5-min Rain = 0
KGU1 161218Z 05016KT M08/M22 A3049 RMK A01 T10801224  RH  031%=      5-min Rain = 0
KGU1 161219Z 04015KT M08/M22 A3049 RMK A01 T10801224  RH  031%=      5-min Rain = 0
KGU1 161220Z 04013G18KT M08/M22 A3049 RMK A01 T10801224  RH  031%=      5-min Rain = 0
KGU1 161221Z 04016KT M08/M23 A3049 RMK A01 T10801231  RH  029%=      5-min Rain = 0
KGU1 161222Z 04016G21KT M08/M23 A3049 RMK A01 T10801232  RH  029%=      5-min Rain = 0
KGU1 161223Z 04014KT M08/M23 A3049 RMK A01 T10811232  RH  029%=      5-min Rain = 0
KGU1 161224Z 04013G18KT M08/M23 A3049 RMK A01 T10801233  RH  029%=      5-min Rain = 0
KGU1 161225Z 04016G21KT M08/M24 A3049 RMK A01 T10801239  RH  027%=      5-min Rain = 0
KGU1 161226Z 04012KT M08/M24 A3049 RMK A01 T10801235  RH  029%=      5-min Rain = 0
KGU1 161227Z 05015KT M08/M24 A3049 RMK A01 T10811236  RH  028%=      5-min Rain = 0
KGU1 161228Z 04015G20KT M08/M24 A3049 RMK A01 T10801235  RH  029%=      5-min Rain = 0
KGU1 161229Z 04017KT M08/M24 A3049 RMK A01 T10811237  RH  028%=      5-min Rain = 0
KGU1 161230Z 04016KT M08/M24 A3049 RMK A01 T10811238  RH  028%=      5-min Rain = 0
KGU1 161231Z 03017KT M08/M24 A305 RMK A01 T10801240  RH  027%=      5-min Rain = 0
KGU1 161232Z 03019G24KT M08/M24 A305 RMK A01 T10811241  RH  027%=      5-min Rain = 0
KGU1 161233Z 03017G22KT M08/M24 A305 RMK A01 T10811238  RH  028%=      5-min Rain = 0
KGU1 161234Z 04012KT M08/M24 A305 RMK A01 T10821235  RH  029%=      5-min Rain = 0
KGU1 161235Z 03015KT M08/M23 A305 RMK A01 T10821233  RH  029%=      5-min Rain = 0
KGU1 161236Z 04017KT M08/M23 A305 RMK A01 T10821231  RH  030%=      5-min Rain = 0
KGU1 161237Z 03018KT M08/M24 A305 RMK A01 T10821239  RH  028%=      5-min Rain = 0
KGU1 161238Z 03017G22KT M08/M24 A305 RMK A01 T10811240  RH  027%=      5-min Rain = 0
KGU1 161239Z 02013KT M08/M24 A305 RMK A01 T10811239  RH  028%=      5-min Rain = 0
KGU1 161240Z 03013G18KT M08/M24 A305 RMK A01 T10811238  RH  028%=      5-min Rain = 0
KGU1 161241Z 03013KT M08/M23 A305 RMK A01 T10811233  RH  029%=      5-min Rain = 0
KGU1 161242Z 03016KT M08/M23 A305 RMK A01 T10811232  RH  029%=      5-min Rain = 0
KGU1 161243Z 03013KT M08/M23 A305 RMK A01 T10811233  RH  029%=      5-min Rain = 0
KGU1 161244Z 04014G20KT M08/M23 A305 RMK A01 T10821233  RH  029%=      5-min Rain = 0
KGU1 161245Z 04016KT M08/M23 A3051 RMK A01 T10821233  RH  029%=      5-min Rain = 0
KGU1 161246Z 03017KT M08/M23 A3051 RMK A01 T10821232  RH  030%=      5-min Rain = 0
KGU1 161247Z 03015KT M08/M23 A3051 RMK A01 T10821234  RH  029%=      5-min Rain = 0
KGU1 161248Z 03017KT M08/M24 A3051 RMK A01 T10821239  RH  028%=      5-min Rain = 0
KGU1 161249Z 03015KT M08/M24 A3051 RMK A01 T10821241  RH  027%=      5-min Rain = 0
KGU1 161250Z 03016G21KT M08/M24 A3051 RMK A01 T10821239  RH  028%=      5-min Rain = 0
KGU1 161251Z 02016KT M08/M24 A3051 RMK A01 T10821239  RH  028%=      5-min Rain = 0
KGU1 161252Z 02016KT M08/M24 A3051 RMK A01 T10821242  RH  027%=      5-min Rain = 0
KGU1 161253Z 03013KT M08/M24 A3051 RMK A01 T10821244  RH  027%=      5-min Rain = 0
KGU1 161254Z 03013KT M08/M24 A3051 RMK A01 T10821240  RH  027%=      5-min Rain = 0
KGU1 161255Z 03015KT M08/M25 A3051 RMK A01 T10821245  RH  026%=      5-min Rain = 0
KGU1 161256Z 03012KT M08/M25 A3051 RMK A01 T10821248  RH  026%=      5-min Rain = 0
KGU1 161257Z 02012G17KT M08/M25 A3051 RMK A01 T10821250  RH  025%=      5-min Rain = 0
KGU1 161258Z 03016KT M08/M25 A3051 RMK A01 T10811252  RH  025%=      5-min Rain = 0
KGU1 161259Z 04014KT M08/M25 A3051 RMK A01 T10811247  RH  026%=      5-min Rain = 0
KGU1 161300Z 04013KT M08/M24 A3051 RMK A01 T10821242  RH  027%=      5-min Rain = 0
KGU1 161301Z 04009KT M08/M24 A3051 RMK A01 T10821243  RH  027%=      5-min Rain = 0
KGU1 161302Z 04011KT M08/M24 A3051 RMK A01 T10821239  RH  028%=      5-min Rain = 0
KGU1 161303Z 04012KT M08/M24 A3051 RMK A01 T10811243  RH  027%=      5-min Rain = 0
KGU1 161304Z 04014KT M08/M24 A3051 RMK A01 T10811244  RH  027%=      5-min Rain = 0
KGU1 161305Z 04011KT M08/M24 A3051 RMK A01 T10811241  RH  027%=      5-min Rain = 0
KGU1 161306Z 03014G19KT M08/M24 A3051 RMK A01 T10811241  RH  027%=      5-min Rain = 0
KGU1 161307Z 04014KT M08/M24 A3051 RMK A01 T10811243  RH  027%=      5-min Rain = 0
KGU1 161308Z 04015KT M08/M24 A3051 RMK A01 T10811238  RH  028%=      5-min Rain = 0
KGU1 161309Z 04016KT M08/M24 A3051 RMK A01 T10811236  RH  028%=      5-min Rain = 0
KGU1 161310Z 05012KT M08/M24 A3051 RMK A01 T10821238  RH  028%=      5-min Rain = 0
KGU1 161311Z 03011KT M08/M24 A3051 RMK A01 T10821239  RH  028%=      5-min Rain = 0
KGU1 161312Z 03015KT M08/M24 A3051 RMK A01 T10831240  RH  028%=      5-min Rain = 0
KGU1 161313Z 04014KT M08/M24 A3051 RMK A01 T10831238  RH  028%=      5-min Rain = 0
KGU1 161314Z 04015G20KT M08/M24 A3051 RMK A01 T10841239  RH  028%=      5-min Rain = 0
KGU1 161315Z 04016KT M08/M24 A3051 RMK A01 T10841240  RH  028%=      5-min Rain = 0
KGU1 161316Z 03017KT M08/M24 A3051 RMK A01 T10841242  RH  028%=      5-min Rain = 0
KGU1 161317Z 03016G21KT M09/M24 A3051 RMK A01 T10851244  RH  027%=      5-min Rain = 0
KGU1 161318Z 03014KT M09/M24 A3051 RMK A01 T10851244  RH  027%=      5-min Rain = 0
KGU1 161319Z 03013G18KT M09/M25 A3051 RMK A01 T10861245  RH  027%=      5-min Rain = 0
KGU1 161320Z 03014KT M09/M25 A3051 RMK A01 T10861245  RH  027%=      5-min Rain = 0
KGU1 161321Z 03013KT M09/M24 A3051 RMK A01 T10861243  RH  028%=      5-min Rain = 0
KGU1 161322Z 03017G22KT M09/M25 A3051 RMK A01 T10861246  RH  027%=      5-min Rain = 0
KGU1 161323Z 04013G19KT M09/M25 A3051 RMK A01 T10861250  RH  026%=      5-min Rain = 0
KGU1 161324Z 03015KT M09/M25 A3051 RMK A01 T10861248  RH  026%=      5-min Rain = 0
KGU1 161325Z 03013G19KT M09/M25 A3051 RMK A01 T10861247  RH  027%=      5-min Rain = 0
KGU1 161326Z 03014KT M09/M25 A3051 RMK A01 T10871246  RH  027%=      5-min Rain = 0
KGU1 161327Z 03012KT M09/M25 A3051 RMK A01 T10871246  RH  027%=      5-min Rain = 0
KGU1 161328Z 03014KT M09/M24 A3051 RMK A01 T10871244  RH  028%=      5-min Rain = 0
KGU1 161329Z 03014KT M09/M24 A3051 RMK A01 T10871244  RH  028%=      5-min Rain = 0
KGU1 161330Z 03015KT M09/M24 A3051 RMK A01 T10871244  RH  028%=      5-min Rain = 0
KGU1 161331Z 03011KT M09/M24 A3051 RMK A01 T10871243  RH  028%=      5-min Rain = 0
KGU1 161332Z 03014KT M09/M24 A3051 RMK A01 T10881242  RH  028%=      5-min Rain = 0
KGU1 161333Z 03016KT M09/M24 A3052 RMK A01 T10881243  RH  028%=      5-min Rain = 0
KGU1 161334Z 02016KT M09/M24 A3052 RMK A01 T10881242  RH  028%=      5-min Rain = 0
KGU1 161335Z 03014KT M09/M24 A3052 RMK A01 T10881243  RH  028%=      5-min Rain = 0
KGU1 161336Z 03011KT M09/M24 A3052 RMK A01 T10881242  RH  028%=      5-min Rain = 0
KGU1 161337Z 02012KT M09/M24 A3052 RMK A01 T10881243  RH  028%=      5-min Rain = 0
KGU1 161338Z 03012KT M09/M24 A3052 RMK A01 T10891243  RH  028%=      5-min Rain = 0
KGU1 161339Z 04014KT M09/M24 A3052 RMK A01 T10891242  RH  029%=      5-min Rain = 0
KGU1 161340Z 04010G15KT M09/M24 A3052 RMK A01 T10891239  RH  029%=      5-min Rain = 0
KGU1 161341Z 02013KT M09/M24 A3052 RMK A01 T10891239  RH  029%=      5-min Rain = 0
KGU1 161342Z 02013KT M09/M24 A3052 RMK A01 T10891240  RH  029%=      5-min Rain = 0
KGU1 161343Z 02014KT M09/M24 A3052 RMK A01 T10891240  RH  029%=      5-min Rain = 0
KGU1 161344Z 03014KT M09/M24 A3052 RMK A01 T10891239  RH  029%=      5-min Rain = 0
KGU1 161345Z 04013KT M09/M24 A3052 RMK A01 T10891238  RH  030%=      5-min Rain = 0
KGU1 161346Z 03011KT M09/M24 A3052 RMK A01 T10901236  RH  030%=      5-min Rain = 0
KGU1 161347Z 04011KT M09/M24 A3052 RMK A01 T10901236  RH  030%=      5-min Rain = 0
KGU1 161348Z 03011KT M09/M23 A3052 RMK A01 T10901234  RH  031%=      5-min Rain = 0
KGU1 161349Z 03012G17KT M09/M24 A3052 RMK A01 T10901235  RH  031%=      5-min Rain = 0
KGU1 161350Z 03013KT M09/M23 A3052 RMK A01 T10901234  RH  031%=      5-min Rain = 0
KGU1 161351Z 03013KT M09/M23 A3052 RMK A01 T10901234  RH  031%=      5-min Rain = 0
KGU1 161352Z 02017KT M09/M23 A3052 RMK A01 T10901234  RH  031%=      5-min Rain = 0
KGU1 161353Z 03014KT M09/M23 A3052 RMK A01 T10901234  RH  031%=      5-min Rain = 0
KGU1 161354Z 04010KT M09/M23 A3052 RMK A01 T10911232  RH  031%=      5-min Rain = 0
KGU1 161355Z 04012KT M09/M23 A3052 RMK A01 T10901232  RH  031%=      5-min Rain = 0
KGU1 161356Z 04013G18KT M09/M23 A3052 RMK A01 T10901232  RH  031%=      5-min Rain = 0
KGU1 161357Z 04013G18KT M09/M23 A3052 RMK A01 T10911233  RH  031%=      5-min Rain = 0
KGU1 161358Z 04014KT M09/M23 A3052 RMK A01 T10911232  RH  032%=      5-min Rain = 0
KGU1 161359Z 04013KT M09/M23 A3052 RMK A01 T10911231  RH  032%=      5-min Rain = 0
KGU1 161400Z 04014KT M09/M23 A3052 RMK A01 T10911231  RH  032%=      5-min Rain = 0
KGU1 161401Z 04012KT M09/M23 A3052 RMK A01 T10911232  RH  032%=      5-min Rain = 0
KGU1 161402Z 05013KT M09/M23 A3052 RMK A01 T10911230  RH  032%=      5-min Rain = 0
KGU1 161403Z 04014KT M09/M23 A3052 RMK A01 T10911228  RH  033%=      5-min Rain = 0
KGU1 161404Z 05012KT M09/M23 A3052 RMK A01 T10911226  RH  033%=      5-min Rain = 0
KGU1 161405Z 05010KT M09/M22 A3052 RMK A01 T10911223  RH  034%=      5-min Rain = 0
KGU1 161406Z 05010KT M09/M22 A3052 RMK A01 T10911221  RH  035%=      5-min Rain = 0
KGU1 161407Z 05012KT M09/M22 A3052 RMK A01 T10911221  RH  035%=      5-min Rain = 0
KGU1 161408Z 05010KT M09/M22 A3052 RMK A01 T10911221  RH  035%=      5-min Rain = 0
KGU1 161409Z 05012KT M09/M22 A3052 RMK A01 T10911221  RH  035%=      5-min Rain = 0
KGU1 161410Z 06012KT M09/M22 A3052 RMK A01 T10911221  RH  035%=      5-min Rain = 0
KGU1 161411Z 05012KT M09/M22 A3052 RMK A01 T10911221  RH  035%=      5-min Rain = 0
KGU1 161412Z 04012KT M09/M22 A3052 RMK A01 T10911222  RH  035%=      5-min Rain = 0
KGU1 161413Z 05013KT M09/M22 A3052 RMK A01 T10911224  RH  034%=      5-min Rain = 0
KGU1 161414Z 03009KT M09/M22 A3052 RMK A01 T10911221  RH  035%=      5-min Rain = 0
KGU1 161415Z 04013KT M09/M22 A3052 RMK A01 T10901222  RH  035%=      5-min Rain = 0
KGU1 161416Z 05009KT M09/M22 A3052 RMK A01 T10901220  RH  035%=      5-min Rain = 0
KGU1 161417Z 05012KT M09/M22 A3052 RMK A01 T10901220  RH  035%=      5-min Rain = 0
KGU1 161418Z 05013KT M09/M22 A3052 RMK A01 T10901224  RH  034%=      5-min Rain = 0
KGU1 161419Z 05013KT M09/M22 A3052 RMK A01 T10911222  RH  034%=      5-min Rain = 0
KGU1 161420Z 05012KT M09/M22 A3052 RMK A01 T10901221  RH  035%=      5-min Rain = 0
KGU1 161421Z 05011KT M09/M22 A3052 RMK A01 T10901218  RH  036%=      5-min Rain = 0
KGU1 161422Z 05011KT M09/M22 A3052 RMK A01 T10901217  RH  036%=      5-min Rain = 0
KGU1 161423Z 06011KT M09/M22 A3052 RMK A01 T10901217  RH  036%=      5-min Rain = 0
KGU1 161424Z 05011G16KT M09/M22 A3052 RMK A01 T10901216  RH  036%=      5-min Rain = 0
KGU1 161425Z 05012KT M09/M22 A3052 RMK A01 T10901216  RH  036%=      5-min Rain = 0
KGU1 161426Z 06012KT M09/M21 A3052 RMK A01 T10901214  RH  037%=      5-min Rain = 0
KGU1 161427Z 06011KT M09/M21 A3052 RMK A01 T10901212  RH  037%=      5-min Rain = 0
KGU1 161428Z 06013KT M09/M21 A3052 RMK A01 T10901214  RH  037%=      5-min Rain = 0
KGU1 161429Z 06013KT M09/M22 A3052 RMK A01 T10901216  RH  036%=      5-min Rain = 0
KGU1 161430Z 06015KT M09/M22 A3052 RMK A01 T10901218  RH  036%=      5-min Rain = 0
KGU1 161431Z 06015KT M09/M22 A3052 RMK A01 T10911218  RH  036%=      5-min Rain = 0
KGU1 161432Z 05015KT M09/M22 A3052 RMK A01 T10901217  RH  036%=      5-min Rain = 0
KGU1 161433Z 05012KT M09/M22 A3052 RMK A01 T10901215  RH  037%=      5-min Rain = 0
KGU1 161434Z 05013KT M09/M21 A3052 RMK A01 T10901214  RH  037%=      5-min Rain = 0
KGU1 161435Z 05012KT M09/M21 A3052 RMK A01 T10901213  RH  037%=      5-min Rain = 0
KGU1 161436Z 05015KT M09/M21 A3052 RMK A01 T10901213  RH  037%=      5-min Rain = 0
KGU1 161437Z 05014KT M09/M22 A3052 RMK A01 T10901215  RH  036%=      5-min Rain = 0
KGU1 161438Z 05014KT M09/M21 A3052 RMK A01 T10901213  RH  037%=      5-min Rain = 0
KGU1 161439Z 06013KT M09/M21 A3052 RMK A01 T10901211  RH  038%=      5-min Rain = 0
KGU1 161440Z 05013KT M09/M21 A3052 RMK A01 T10901211  RH  038%=      5-min Rain = 0
KGU1 161441Z 06011G18KT M09/M21 A3052 RMK A01 T10901210  RH  038%=      5-min Rain = 0
KGU1 161442Z 05013KT M09/M21 A3052 RMK A01 T10901210  RH  038%=      5-min Rain = 0
KGU1 161443Z 06013KT M09/M21 A3052 RMK A01 T10901210  RH  038%=      5-min Rain = 0
KGU1 161444Z 06013KT M09/M21 A3052 RMK A01 T10901209  RH  039%=      5-min Rain = 0
KGU1 161445Z 05012KT M09/M21 A3052 RMK A01 T10901207  RH  039%=      5-min Rain = 0
KGU1 161446Z 06011KT M09/M20 A3052 RMK A01 T10901204  RH  040%=      5-min Rain = 0
KGU1 161447Z 06012KT M09/M20 A3052 RMK A01 T10901204  RH  040%=      5-min Rain = 0
KGU1 161448Z 06010KT M09/M20 A3052 RMK A01 T10901202  RH  041%=      5-min Rain = 0
KGU1 161449Z 06010G15KT M09/M20 A3052 RMK A01 T10891201  RH  041%=      5-min Rain = 0
KGU1 161450Z 05011KT M09/M20 A3052 RMK A01 T10891202  RH  040%=      5-min Rain = 0
KGU1 161451Z 06011G17KT M09/M20 A3052 RMK A01 T10891201  RH  041%=      5-min Rain = 0
KGU1 161452Z 04014KT M09/M20 A3052 RMK A01 T10891202  RH  040%=      5-min Rain = 0
KGU1 161453Z 05011KT M09/M20 A3052 RMK A01 T10891201  RH  041%=      5-min Rain = 0
KGU1 161454Z 06010KT M09/M20 A3052 RMK A01 T10881200  RH  041%=      5-min Rain = 0
KGU1 161455Z 05012G17KT M09/M20 A3052 RMK A01 T10881201  RH  040%=      5-min Rain = 0
KGU1 161456Z 05013KT M09/M20 A3052 RMK A01 T10891203  RH  040%=      5-min Rain = 0
KGU1 161457Z 05012KT M09/M20 A3053 RMK A01 T10891203  RH  040%=      5-min Rain = 0
KGU1 161458Z 06010KT M09/M20 A3053 RMK A01 T10891202  RH  040%=      5-min Rain = 0
KGU1 161459Z 06013KT M09/M21 A3053 RMK A01 T10891205  RH  039%=      5-min Rain = 0
KGU1 161500Z 05013KT M09/M21 A3053 RMK A01 T10891205  RH  039%=      5-min Rain = 0
KGU1 161501Z 05013KT M09/M21 A3053 RMK A01 T10891206  RH  039%=      5-min Rain = 0
KGU1 161502Z 05012KT M09/M21 A3053 RMK A01 T10891205  RH  039%=      5-min Rain = 0
KGU1 161503Z 06012KT M09/M21 A3053 RMK A01 T10891207  RH  039%=      5-min Rain = 0
KGU1 161504Z 06012KT M09/M21 A3053 RMK A01 T10891207  RH  039%=      5-min Rain = 0
KGU1 161505Z 06011KT M09/M21 A3053 RMK A01 T10891206  RH  039%=      5-min Rain = 0
KGU1 161506Z 06012KT M09/M21 A3053 RMK A01 T10891207  RH  039%=      5-min Rain = 0
KGU1 161507Z 06011KT M09/M21 A3053 RMK A01 T10891205  RH  039%=      5-min Rain = 0
KGU1 161508Z 06010G15KT M09/M20 A3053 RMK A01 T10891204  RH  040%=      5-min Rain = 0
KGU1 161509Z 06009KT M09/M20 A3053 RMK A01 T10891202  RH  040%=      5-min Rain = 0
KGU1 161510Z 06013KT M09/M20 A3053 RMK A01 T10881203  RH  040%=      5-min Rain = 0
KGU1 161511Z 06011KT M09/M20 A3053 RMK A01 T10881202  RH  040%=      5-min Rain = 0
KGU1 161512Z 05010KT M09/M20 A3053 RMK A01 T10881200  RH  041%=      5-min Rain = 0
KGU1 161513Z 06010G15KT M09/M20 A3053 RMK A01 T10871200  RH  041%=      5-min Rain = 0
KGU1 161514Z 05011KT M09/M20 A3053 RMK A01 T10871202  RH  040%=      5-min Rain = 0
KGU1 161515Z 06010KT M09/M20 A3053 RMK A01 T10861202  RH  040%=      5-min Rain = 0
KGU1 161516Z 06011KT M09/M20 A3053 RMK A01 T10871203  RH  039%=      5-min Rain = 0
KGU1 161517Z 06008KT M09/M20 A3053 RMK A01 T10871202  RH  040%=      5-min Rain = 0
KGU1 161518Z 06010KT M09/M20 A3053 RMK A01 T10861200  RH  040%=      5-min Rain = 0
KGU1 161519Z 06011KT M09/M20 A3053 RMK A01 T10861198  RH  041%=      5-min Rain = 0
KGU1 161520Z 06009KT M09/M20 A3053 RMK A01 T10861196  RH  041%=      5-min Rain = 0
KGU1 161521Z 06009KT M09/M20 A3054 RMK A01 T10861196  RH  041%=      5-min Rain = 0
KGU1 161522Z 06011KT M09/M20 A3054 RMK A01 T10851196  RH  041%=      5-min Rain = 0
KGU1 161523Z 06011KT M09/M20 A3054 RMK A01 T10861197  RH  041%=      5-min Rain = 0
KGU1 161524Z 05009KT M09/M20 A3054 RMK A01 T10851195  RH  042%=      5-min Rain = 0
KGU1 161525Z 06009KT M09/M20 A3054 RMK A01 T10851195  RH  041%=      5-min Rain = 0
KGU1 161526Z 06009KT M08/M20 A3054 RMK A01 T10841195  RH  041%=      5-min Rain = 0
KGU1 161527Z 05011KT M08/M19 A3054 RMK A01 T10841194  RH  042%=      5-min Rain = 0
KGU1 161528Z 06011KT M08/M20 A3054 RMK A01 T10841195  RH  041%=      5-min Rain = 0
KGU1 161529Z 06009KT M08/M19 A3054 RMK A01 T10831193  RH  042%=      5-min Rain = 0
KGU1 161530Z 07008KT M08/M19 A3054 RMK A01 T10831191  RH  042%=      5-min Rain = 0
KGU1 161531Z 06009KT M08/M19 A3054 RMK A01 T10831192  RH  042%=      5-min Rain = 0
KGU1 161532Z 06010KT M08/M20 A3054 RMK A01 T10831196  RH  041%=      5-min Rain = 0
KGU1 161533Z 06012KT M08/M20 A3054 RMK A01 T10841197  RH  040%=      5-min Rain = 0
KGU1 161534Z 06010KT M08/M20 A3054 RMK A01 T10841197  RH  041%=      5-min Rain = 0
KGU1 161535Z 06010KT M08/M20 A3054 RMK A01 T10841198  RH  040%=      5-min Rain = 0
KGU1 161536Z 06010KT M08/M20 A3054 RMK A01 T10841199  RH  040%=      5-min Rain = 0
KGU1 161537Z 06011KT M08/M20 A3055 RMK A01 T10841199  RH  040%=      5-min Rain = 0
KGU1 161538Z 06010KT M08/M20 A3055 RMK A01 T10841198  RH  040%=      5-min Rain = 0
KGU1 161539Z 06009KT M08/M20 A3055 RMK A01 T10841196  RH  041%=      5-min Rain = 0
KGU1 161540Z 06010KT M08/M20 A3055 RMK A01 T10831196  RH  041%=      5-min Rain = 0
KGU1 161541Z 06012KT M08/M20 A3055 RMK A01 T10841198  RH  040%=      5-min Rain = 0
KGU1 161542Z 06010KT M08/M20 A3055 RMK A01 T10841197  RH  040%=      5-min Rain = 0
KGU1 161543Z 05010G16KT M08/M20 A3055 RMK A01 T10831195  RH  041%=      5-min Rain = 0
KGU1 161544Z 05012KT M08/M20 A3055 RMK A01 T10821200  RH  039%=      5-min Rain = 0
KGU1 161545Z 05010KT M08/M20 A3055 RMK A01 T10811199  RH  039%=      5-min Rain = 0
KGU1 161546Z 05010KT M08/M20 A3055 RMK A01 T10811200  RH  039%=      5-min Rain = 0
KGU1 161547Z 05009KT M08/M20 A3055 RMK A01 T10801202  RH  038%=      5-min Rain = 0
KGU1 161548Z 05009KT M08/M20 A3055 RMK A01 T10791203  RH  037%=      5-min Rain = 0
KGU1 161549Z 05008KT M08/M19 A3055 RMK A01 T10781193  RH  040%=      5-min Rain = 0
KGU1 161550Z 05010KT M08/M20 A3055 RMK A01 T10761201  RH  037%=      5-min Rain = 0
KGU1 161551Z 06010KT M08/M21 A3055 RMK A01 T10771207  RH  035%=      5-min Rain = 0
KGU1 161552Z 06007KT M08/M20 A3055 RMK A01 T10771204  RH  036%=      5-min Rain = 0
KGU1 161553Z 06008KT M08/M20 A3055 RMK A01 T10761199  RH  038%=      5-min Rain = 0
KGU1 161554Z 06007G12KT M08/M19 A3055 RMK A01 T10751193  RH  039%=      5-min Rain = 0
KGU1 161555Z 07011KT M08/M20 A3055 RMK A01 T10761196  RH  038%=      5-min Rain = 0
KGU1 161556Z 06010KT M08/M20 A3055 RMK A01 T10771200  RH  038%=      5-min Rain = 0
KGU1 161557Z 05010KT M08/M21 A3055 RMK A01 T10781211  RH  034%=      5-min Rain = 0
KGU1 161558Z 05010KT M08/M21 A3055 RMK A01 T10781206  RH  036%=      5-min Rain = 0
KGU1 161559Z 04010KT M08/M21 A3055 RMK A01 T10771208  RH  035%=      5-min Rain = 0
KGU1 161600Z 04010KT M08/M21 A3055 RMK A01 T10771207  RH  035%=      5-min Rain = 0
KGU1 161601Z 05008KT M08/M21 A3055 RMK A01 T10771206  RH  036%=      5-min Rain = 0
KGU1 161602Z 06007KT M08/M21 A3055 RMK A01 T10771205  RH  036%=      5-min Rain = 0
KGU1 161603Z 06009KT M08/M21 A3055 RMK A01 T10761209  RH  035%=      5-min Rain = 0
KGU1 161604Z 06011KT M08/M21 A3055 RMK A01 T10771206  RH  036%=      5-min Rain = 0
KGU1 161605Z 05009KT M08/M21 A3055 RMK A01 T10771207  RH  035%=      5-min Rain = 0
KGU1 161606Z 05009KT M08/M21 A3055 RMK A01 T10771212  RH  034%=      5-min Rain = 0
KGU1 161607Z 06011KT M08/M22 A3055 RMK A01 T10771215  RH  033%=      5-min Rain = 0
KGU1 161608Z 06011KT M08/M22 A3055 RMK A01 T10771219  RH  032%=      5-min Rain = 0
KGU1 161609Z 06007KT M08/M22 A3055 RMK A01 T10781217  RH  033%=      5-min Rain = 0
KGU1 161610Z 06010KT M08/M21 A3055 RMK A01 T10771207  RH  035%=      5-min Rain = 0
KGU1 161611Z 07012KT M08/M21 A3055 RMK A01 T10771207  RH  035%=      5-min Rain = 0
KGU1 161612Z 06010KT M08/M21 A3055 RMK A01 T10771210  RH  034%=      5-min Rain = 0
KGU1 161613Z 07009KT M08/M20 A3055 RMK A01 T10771204  RH  036%=      5-min Rain = 0
KGU1 161614Z 06010KT M08/M20 A3056 RMK A01 T10781197  RH  038%=      5-min Rain = 0
KGU1 161615Z 06009KT M08/M20 A3055 RMK A01 T10771198  RH  038%=      5-min Rain = 0
KGU1 161616Z 06011KT M08/M20 A3055 RMK A01 T10771202  RH  037%=      5-min Rain = 0
KGU1 161617Z 06010KT M08/M20 A3055 RMK A01 T10781201  RH  037%=      5-min Rain = 0
KGU1 161618Z 06012KT M08/M20 A3055 RMK A01 T10781199  RH  038%=      5-min Rain = 0
KGU1 161619Z 06010KT M08/M20 A3056 RMK A01 T10781197  RH  039%=      5-min Rain = 0
KGU1 161620Z 06009KT M08/M20 A3055 RMK A01 T10771196  RH  039%=      5-min Rain = 0
KGU1 161621Z 07009G15KT M08/M20 A3055 RMK A01 T10761196  RH  039%=      5-min Rain = 0
KGU1 161622Z 06011KT M08/M20 A3055 RMK A01 T10751197  RH  038%=      5-min Rain = 0
KGU1 161623Z 06010KT M08/M20 A3055 RMK A01 T10761197  RH  038%=      5-min Rain = 0
KGU1 161624Z 06011KT M08/M20 A3055 RMK A01 T10761198  RH  038%=      5-min Rain = 0
KGU1 161625Z 06010G15KT M08/M20 A3055 RMK A01 T10751198  RH  037%=      5-min Rain = 0
KGU1 161626Z 05014KT M07/M20 A3055 RMK A01 T10741203  RH  036%=      5-min Rain = 0
KGU1 161627Z 06011KT M07/M20 A3056 RMK A01 T10741203  RH  036%=      5-min Rain = 0
KGU1 161628Z 06008KT M07/M20 A3056 RMK A01 T10731201  RH  036%=      5-min Rain = 0
KGU1 161629Z 06010KT M07/M20 A3056 RMK A01 T10731201  RH  036%=      5-min Rain = 0
KGU1 161630Z 06011KT M07/M20 A3056 RMK A01 T10741201  RH  036%=      5-min Rain = 0
KGU1 161631Z 06011KT M08/M20 A3056 RMK A01 T10751201  RH  036%=      5-min Rain = 0
KGU1 161632Z 05010KT M08/M20 A3056 RMK A01 T10751202  RH  036%=      5-min Rain = 0
KGU1 161633Z 05010KT M07/M21 A3056 RMK A01 T10741205  RH  035%=      5-min Rain = 0
KGU1 161634Z 06011KT M07/M21 A3056 RMK A01 T10741207  RH  035%=      5-min Rain = 0
KGU1 161635Z 06009KT M07/M21 A3056 RMK A01 T10741207  RH  035%=      5-min Rain = 0
KGU1 161636Z 05011KT M07/M20 A3056 RMK A01 T10731204  RH  035%=      5-min Rain = 0
KGU1 161637Z 05013KT M07/M21 A3056 RMK A01 T10721209  RH  033%=      5-min Rain = 0
KGU1 161638Z 05012KT M07/M21 A3056 RMK A01 T10721209  RH  033%=      5-min Rain = 0
KGU1 161639Z 05012KT M07/M21 A3056 RMK A01 T10721210  RH  033%=      5-min Rain = 0
KGU1 161640Z 06011KT M07/M21 A3056 RMK A01 T10721209  RH  033%=      5-min Rain = 0
KGU1 161641Z 05009KT M07/M21 A3056 RMK A01 T10711207  RH  034%=      5-min Rain = 0
KGU1 161642Z 06010KT M07/M21 A3056 RMK A01 T10701206  RH  034%=      5-min Rain = 0
KGU1 161643Z 06009KT M07/M21 A3056 RMK A01 T10711207  RH  034%=      5-min Rain = 0
KGU1 161644Z 06010KT M07/M21 A3056 RMK A01 T10701205  RH  034%=      5-min Rain = 0
KGU1 161645Z 05010KT M07/M21 A3056 RMK A01 T10691206  RH  034%=      5-min Rain = 0
KGU1 161646Z 05009KT M07/M21 A3056 RMK A01 T10681207  RH  033%=      5-min Rain = 0
KGU1 161647Z 07011KT M07/M21 A3056 RMK A01 T10671206  RH  033%=      5-min Rain = 0
KGU1 161648Z 06012KT M07/M21 A3056 RMK A01 T10681208  RH  033%=      5-min Rain = 0
KGU1 161649Z 06011KT M07/M21 A3056 RMK A01 T10681207  RH  033%=      5-min Rain = 0
KGU1 161650Z 06013KT M07/M21 A3056 RMK A01 T10681205  RH  033%=      5-min Rain = 0
KGU1 161651Z 06010KT M07/M21 A3056 RMK A01 T10681205  RH  033%=      5-min Rain = 0
KGU1 161652Z 06012KT M07/M21 A3056 RMK A01 T10671205  RH  033%=      5-min Rain = 0
KGU1 161653Z 06014KT M07/M21 A3056 RMK A01 T10661209  RH  032%=      5-min Rain = 0
KGU1 161654Z 05013KT M07/M21 A3056 RMK A01 T10661208  RH  032%=      5-min Rain = 0
KGU1 161655Z 06009KT M07/M21 A3056 RMK A01 T10661205  RH  033%=      5-min Rain = 0
KGU1 161656Z 06011KT M07/M20 A3056 RMK A01 T10651204  RH  033%=      5-min Rain = 0
KGU1 161657Z 06011KT M07/M21 A3056 RMK A01 T10651205  RH  033%=      5-min Rain = 0
KGU1 161658Z 05012KT M07/M21 A3056 RMK A01 T10651205  RH  033%=      5-min Rain = 0
KGU1 161659Z 04011KT M07/M21 A3057 RMK A01 T10671207  RH  033%=      5-min Rain = 0
KGU1 161700Z 04012KT M07/M21 A3057 RMK A01 T10681210  RH  032%=      5-min Rain = 0
KGU1 161701Z 05008KT M07/M21 A3056 RMK A01 T10691209  RH  033%=      5-min Rain = 0
KGU1 161702Z 05010KT M07/M20 A3056 RMK A01 T10661203  RH  034%=      5-min Rain = 0
KGU1 161703Z 05011G16KT M06/M20 A3056 RMK A01 T10621202  RH  033%=      5-min Rain = 0
KGU1 161704Z 04013KT M06/M21 A3057 RMK A01 T10631207  RH  032%=      5-min Rain = 0
KGU1 161705Z 04012KT M07/M21 A3057 RMK A01 T10651206  RH  032%=      5-min Rain = 0
KGU1 161706Z 02011KT M07/M21 A3056 RMK A01 T10671207  RH  032%=      5-min Rain = 0
KGU1 161707Z 04011KT M07/M21 A3056 RMK A01 T10671207  RH  032%=      5-min Rain = 0
KGU1 161708Z 06011KT M07/M21 A3056 RMK A01 T10661205  RH  033%=      5-min Rain = 0
KGU1 161709Z 06010KT M07/M21 A3056 RMK A01 T10651207  RH  032%=      5-min Rain = 0
KGU1 161710Z 05009KT M07/M21 A3056 RMK A01 T10651205  RH  033%=      5-min Rain = 0
KGU1 161711Z 07009KT M06/M20 A3056 RMK A01 T10631201  RH  033%=      5-min Rain = 0
KGU1 161712Z 05010KT M06/M20 A3056 RMK A01 T10611201  RH  033%=      5-min Rain = 0
KGU1 161713Z 06007KT M06/M20 A3056 RMK A01 T10571198  RH  033%=      5-min Rain = 0
KGU1 161714Z 06006G12KT M05/M20 A3056 RMK A01 T10541197  RH  032%=      5-min Rain = 0
KGU1 161715Z 07013KT M05/M20 A3056 RMK A01 T10531201  RH  031%=      5-min Rain = 0
KGU1 161716Z 06011KT M06/M20 A3056 RMK A01 T10561202  RH  031%=      5-min Rain = 0
KGU1 161717Z 06008KT M06/M20 A3056 RMK A01 T10581200  RH  032%=      5-min Rain = 0
KGU1 161718Z 06008KT M06/M20 A3056 RMK A01 T10571199  RH  032%=      5-min Rain = 0
KGU1 161719Z 05011KT M06/M20 A3056 RMK A01 T10571203  RH  031%=      5-min Rain = 0
KGU1 161720Z 05009KT M06/M21 A3056 RMK A01 T10591205  RH  031%=      5-min Rain = 0
KGU1 161721Z 05008KT M06/M20 A3056 RMK A01 T10611204  RH  032%=      5-min Rain = 0
KGU1 161722Z 06009KT M06/M20 A3056 RMK A01 T10621204  RH  032%=      5-min Rain = 0
KGU1 161723Z 05009KT M06/M20 A3056 RMK A01 T10621202  RH  033%=      5-min Rain = 0
KGU1 161724Z 05010KT M06/M20 A3056 RMK A01 T10621201  RH  033%=      5-min Rain = 0
KGU1 161725Z 07010KT M06/M20 A3056 RMK A01 T10621201  RH  033%=      5-min Rain = 0
KGU1 161726Z 07009KT M06/M20 A3056 RMK A01 T10621201  RH  033%=      5-min Rain = 0
KGU1 161727Z 06010KT M06/M20 A3056 RMK A01 T10621202  RH  033%=      5-min Rain = 0
KGU1 161728Z 04010KT M06/M20 A3056 RMK A01 T10631202  RH  033%=      5-min Rain = 0
KGU1 161729Z 04011KT M06/M20 A3056 RMK A01 T10631201  RH  033%=      5-min Rain = 0
KGU1 161730Z 05010KT M06/M20 A3056 RMK A01 T10631201  RH  033%=      5-min Rain = 0
KGU1 161731Z 03010KT M06/M20 A3056 RMK A01 T10641202  RH  033%=      5-min Rain = 0
KGU1 161732Z 03010G15KT M07/M20 A3056 RMK A01 T10651202  RH  034%=      5-min Rain = 0
KGU1 161733Z 05009KT M06/M20 A3055 RMK A01 T10631200  RH  034%=      5-min Rain = 0
KGU1 161734Z 05008G13KT M06/M20 A3055 RMK A01 T10631198  RH  034%=      5-min Rain = 0
KGU1 161735Z 06011KT M06/M20 A3055 RMK A01 T10631199  RH  034%=      5-min Rain = 0
KGU1 161736Z 06009KT M06/M20 A3055 RMK A01 T10631198  RH  034%=      5-min Rain = 0
KGU1 161737Z 05009KT M06/M20 A3055 RMK A01 T10641199  RH  034%=      5-min Rain = 0
KGU1 161738Z 06009KT M07/M20 A3055 RMK A01 T10651199  RH  034%=      5-min Rain = 0
KGU1 161739Z 06010KT M07/M20 A3055 RMK A01 T10651199  RH  034%=      5-min Rain = 0
KGU1 161740Z 06010KT M07/M20 A3055 RMK A01 T10661200  RH  034%=      5-min Rain = 0
KGU1 161741Z 04010KT M07/M20 A3055 RMK A01 T10661197  RH  035%=      5-min Rain = 0
KGU1 161742Z 05012KT M07/M20 A3055 RMK A01 T10651197  RH  035%=      5-min Rain = 0
KGU1 161743Z 04011KT M07/M20 A3055 RMK A01 T10651198  RH  035%=      5-min Rain = 0
KGU1 161744Z 03011KT M07/M20 A3055 RMK A01 T10651197  RH  035%=      5-min Rain = 0
KGU1 161745Z 04008KT M06/M20 A3055 RMK A01 T10641195  RH  035%=      5-min Rain = 0
KGU1 161746Z 05010KT M07/M20 A3055 RMK A01 T10651197  RH  035%=      5-min Rain = 0
KGU1 161747Z 06010KT M07/M20 A3055 RMK A01 T10651197  RH  035%=      5-min Rain = 0
KGU1 161748Z 06007KT M07/M19 A3055 RMK A01 T10651194  RH  036%=      5-min Rain = 0
KGU1 161749Z 03008KT M06/M20 A3055 RMK A01 T10641197  RH  035%=      5-min Rain = 0
KGU1 161750Z 04010KT M07/M20 A3055 RMK A01 T10651197  RH  035%=      5-min Rain = 0
KGU1 161751Z 06010KT M07/M20 A3055 RMK A01 T10651197  RH  035%=      5-min Rain = 0
KGU1 161752Z 05009KT M07/M20 A3055 RMK A01 T10661197  RH  035%=      5-min Rain = 0
KGU1 161753Z 06009KT M07/M20 A3055 RMK A01 T10671196  RH  036%=      5-min Rain = 0
KGU1 161754Z 06010KT M07/M20 A3054 RMK A01 T10671196  RH  036%=      5-min Rain = 0
KGU1 161755Z 07012KT M07/M20 A3054 RMK A01 T10681195  RH  036%=      5-min Rain = 0
KGU1 161756Z 07012KT M07/M20 A3054 RMK A01 T10681195  RH  036%=      5-min Rain = 0
KGU1 161757Z 06011KT M07/M20 A3054 RMK A01 T10681196  RH  036%=      5-min Rain = 0
KGU1 161758Z 06010KT M07/M20 A3054 RMK A01 T10681195  RH  037%=      5-min Rain = 0
KGU1 161759Z 06009KT M07/M20 A3054 RMK A01 T10681195  RH  036%=      5-min Rain = 0
KGU1 161800Z 06010KT M07/M20 A3054 RMK A01 T10671195  RH  036%=      5-min Rain = 0
KGU1 161801Z 06010KT M07/M20 A3054 RMK A01 T10671195  RH  036%=      5-min Rain = 0
KGU1 161802Z 06010KT M07/M20 A3054 RMK A01 T10661196  RH  036%=      5-min Rain = 0
KGU1 161803Z 05008KT M07/M19 A3054 RMK A01 T10661193  RH  036%=      5-min Rain = 0
KGU1 161804Z 06009KT M07/M20 A3054 RMK A01 T10651195  RH  035%=      5-min Rain = 0
KGU1 161805Z 06010KT M07/M20 A3054 RMK A01 T10651197  RH  035%=      5-min Rain = 0
KGU1 161806Z 06010KT M07/M20 A3054 RMK A01 T10661195  RH  036%=      5-min Rain = 0
KGU1 161807Z 06006KT M07/M19 A3054 RMK A01 T10661194  RH  036%=      5-min Rain = 0
KGU1 161808Z 06009KT M07/M20 A3054 RMK A01 T10661196  RH  035%=      5-min Rain = 0
KGU1 161809Z 07010KT M07/M19 A3054 RMK A01 T10651194  RH  036%=      5-min Rain = 0
KGU1 161810Z 06011KT M07/M20 A3054 RMK A01 T10651197  RH  035%=      5-min Rain = 0
KGU1 161811Z 06011KT M07/M20 A3054 RMK A01 T10661195  RH  036%=      5-min Rain = 0
KGU1 161812Z 06012KT M07/M20 A3054 RMK A01 T10661197  RH  035%=      5-min Rain = 0
KGU1 161813Z 06010KT M07/M20 A3054 RMK A01 T10661195  RH  036%=      5-min Rain = 0
KGU1 161814Z 06010KT M07/M20 A3054 RMK A01 T10661195  RH  036%=      5-min Rain = 0
KGU1 161815Z 06009KT M07/M20 A3054 RMK A01 T10661196  RH  036%=      5-min Rain = 0
KGU1 161816Z 05009KT M07/M19 A3054 RMK A01 T10651192  RH  037%=      5-min Rain = 0
KGU1 161817Z 04010KT M06/M19 A3054 RMK A01 T10641194  RH  036%=      5-min Rain = 0
KGU1 161818Z 03010KT M06/M19 A3054 RMK A01 T10641194  RH  036%=      5-min Rain = 0
KGU1 161819Z 03009KT M07/M20 A3054 RMK A01 T10651195  RH  035%=      5-min Rain = 0
KGU1 161820Z 04010KT M07/M19 A3054 RMK A01 T10661194  RH  036%=      5-min Rain = 0
KGU1 161821Z 06007KT M06/M19 A3054 RMK A01 T10641192  RH  036%=      5-min Rain = 0
KGU1 161822Z 07009KT M06/M19 A3053 RMK A01 T10631194  RH  035%=      5-min Rain = 0
KGU1 161823Z 05009KT M06/M20 A3054 RMK A01 T10631195  RH  035%=      5-min Rain = 0
KGU1 161824Z 06009KT M06/M19 A3053 RMK A01 T10641193  RH  036%=      5-min Rain = 0
KGU1 161825Z 07009KT M06/M19 A3053 RMK A01 T10641192  RH  036%=      5-min Rain = 0
KGU1 161826Z 06009KT M06/M19 A3053 RMK A01 T10641194  RH  036%=      5-min Rain = 0
KGU1 161827Z 07009KT M06/M19 A3053 RMK A01 T10641193  RH  036%=      5-min Rain = 0
KGU1 161828Z 06009KT M07/M19 A3053 RMK A01 T10661194  RH  036%=      5-min Rain = 0
KGU1 161829Z 06009KT M07/M19 A3053 RMK A01 T10671193  RH  037%=      5-min Rain = 0
KGU1 161830Z 06009KT M07/M19 A3053 RMK A01 T10671193  RH  037%=      5-min Rain = 0
KGU1 161831Z 05007KT M07/M19 A3053 RMK A01 T10661190  RH  038%=      5-min Rain = 0
KGU1 161832Z 06007KT M06/M19 A3053 RMK A01 T10641191  RH  037%=      5-min Rain = 0
KGU1 161833Z 07008KT M07/M19 A3053 RMK A01 T10651191  RH  037%=      5-min Rain = 0
KGU1 161834Z 06011KT M07/M19 A3053 RMK A01 T10651191  RH  037%=      5-min Rain = 0
KGU1 161835Z 07009KT M07/M19 A3053 RMK A01 T10651192  RH  036%=      5-min Rain = 0
KGU1 161836Z 06009KT M06/M19 A3053 RMK A01 T10641190  RH  037%=      5-min Rain = 0
KGU1 161837Z 07008KT M06/M19 A3052 RMK A01 T10641191  RH  036%=      5-min Rain = 0
KGU1 161838Z 05008KT M06/M19 A3052 RMK A01 T10641192  RH  036%=      5-min Rain = 0
KGU1 161839Z 08009KT M06/M19 A3052 RMK A01 T10641192  RH  036%=      5-min Rain = 0
KGU1 161840Z 08009KT M06/M19 A3052 RMK A01 T10641194  RH  036%=      5-min Rain = 0
KGU1 161841Z 08010KT M07/M19 A3052 RMK A01 T10651194  RH  036%=      5-min Rain = 0
KGU1 161842Z 07009KT M07/M19 A3052 RMK A01 T10651194  RH  036%=      5-min Rain = 0
KGU1 161843Z 08009KT M07/M19 A3052 RMK A01 T10651193  RH  036%=      5-min Rain = 0
KGU1 161844Z 07010KT M07/M19 A3052 RMK A01 T10651194  RH  036%=      5-min Rain = 0
KGU1 161845Z 08009KT M07/M19 A3052 RMK A01 T10651193  RH  036%=      5-min Rain = 0
KGU1 161846Z 07009KT M07/M19 A3052 RMK A01 T10651194  RH  036%=      5-min Rain = 0
KGU1 161847Z 06008KT M07/M19 A3052 RMK A01 T10661193  RH  036%=      5-min Rain = 0
KGU1 161848Z 06008KT M07/M20 A3052 RMK A01 T10661195  RH  036%=      5-min Rain = 0
KGU1 161849Z 07008KT M07/M20 A3052 RMK A01 T10661195  RH  036%=      5-min Rain = 0
KGU1 161850Z 08010KT M07/M20 A3052 RMK A01 T10661195  RH  036%=      5-min Rain = 0
KGU1 161851Z 07007KT M07/M19 A3052 RMK A01 T10661194  RH  036%=      5-min Rain = 0
KGU1 161852Z 06007KT M07/M19 A3052 RMK A01 T10651190  RH  037%=      5-min Rain = 0
KGU1 161853Z 07008KT M06/M19 A3052 RMK A01 T10631191  RH  036%=      5-min Rain = 0
KGU1 161854Z 07007KT M06/M19 A3052 RMK A01 T10621193  RH  035%=      5-min Rain = 0
KGU1 161855Z 06009KT M06/M19 A3052 RMK A01 T10621191  RH  036%=      5-min Rain = 0
KGU1 161856Z 06010KT M06/M19 A3052 RMK A01 T10621192  RH  036%=      5-min Rain = 0
KGU1 161857Z 05006KT M06/M19 A3051 RMK A01 T10621190  RH  036%=      5-min Rain = 0
KGU1 161858Z 07008KT M06/M19 A3051 RMK A01 T10601191  RH  036%=      5-min Rain = 0
KGU1 161859Z 06010KT M06/M19 A3051 RMK A01 T10601194  RH  035%=      5-min Rain = 0
KGU1 161900Z 06009KT M06/M19 A3051 RMK A01 T10611194  RH  035%=      5-min Rain = 0
KGU1 161901Z 07008KT M06/M19 A3051 RMK A01 T10611193  RH  035%=      5-min Rain = 0
KGU1 161902Z 06009KT M06/M19 A3051 RMK A01 T10611193  RH  035%=      5-min Rain = 0
KGU1 161903Z 05008KT M06/M19 A3051 RMK A01 T10611193  RH  035%=      5-min Rain = 0
KGU1 161904Z 06009G14KT M06/M19 A3051 RMK A01 T10611192  RH  035%=      5-min Rain = 0
KGU1 161905Z 06010KT M06/M19 A305 RMK A01 T10611193  RH  035%=      5-min Rain = 0
KGU1 161906Z 07009KT M06/M19 A305 RMK A01 T10611193  RH  035%=      5-min Rain = 0
KGU1 161907Z 07009KT M06/M19 A305 RMK A01 T10611194  RH  035%=      5-min Rain = 0
KGU1 161908Z 06008KT M06/M19 A305 RMK A01 T10621194  RH  035%=      5-min Rain = 0
KGU1 161909Z 06008KT M06/M19 A305 RMK A01 T10611192  RH  036%=      5-min Rain = 0
KGU1 161910Z 07007KT M06/M19 A305 RMK A01 T10611191  RH  035%=      5-min Rain = 0
KGU1 161911Z 08008KT M06/M19 A305 RMK A01 T10591192  RH  035%=      5-min Rain = 0
KGU1 161912Z 08009KT M06/M19 A305 RMK A01 T10601194  RH  034%=      5-min Rain = 0
KGU1 161913Z 08007KT M06/M19 A305 RMK A01 T10601193  RH  035%=      5-min Rain = 0
KGU1 161914Z 08007KT M06/M19 A305 RMK A01 T10611193  RH  035%=      5-min Rain = 0
KGU1 161915Z 06008KT M06/M19 A305 RMK A01 T10601189  RH  036%=      5-min Rain = 0
KGU1 161916Z 05008KT M06/M19 A305 RMK A01 T10591192  RH  035%=      5-min Rain = 0
KGU1 161917Z 05009KT M06/M19 A305 RMK A01 T10601193  RH  035%=      5-min Rain = 0
KGU1 161918Z 06009KT M06/M19 A305 RMK A01 T10611192  RH  035%=      5-min Rain = 0
KGU1 161919Z 06006KT M06/M19 A305 RMK A01 T10621191  RH  036%=      5-min Rain = 0
KGU1 161920Z 05009KT M06/M19 A305 RMK A01 T10611190  RH  036%=      5-min Rain = 0
KGU1 161921Z 06008KT M06/M19 A305 RMK A01 T10611191  RH  036%=      5-min Rain = 0
KGU1 161922Z 07007KT M06/M19 A305 RMK A01 T10611191  RH  036%=      5-min Rain = 0
KGU1 161923Z 07009KT M06/M19 A305 RMK A01 T10601191  RH  035%=      5-min Rain = 0
KGU1 161924Z 07009KT M06/M19 A305 RMK A01 T10621193  RH  035%=      5-min Rain = 0
KGU1 161925Z 06008KT M06/M19 A305 RMK A01 T10631191  RH  036%=      5-min Rain = 0
KGU1 161926Z 05008KT M06/M19 A305 RMK A01 T10621190  RH  037%=      5-min Rain = 0
KGU1 161927Z 07009KT M06/M19 A3049 RMK A01 T10621190  RH  036%=      5-min Rain = 0
KGU1 161928Z 08008KT M06/M19 A3049 RMK A01 T10621189  RH  037%=      5-min Rain = 0
KGU1 161929Z 06007KT M06/M19 A3049 RMK A01 T10611189  RH  036%=      5-min Rain = 0
KGU1 161930Z 07009KT M06/M19 A3049 RMK A01 T10611190  RH  036%=      5-min Rain = 0
KGU1 161931Z 07009KT M06/M19 A3049 RMK A01 T10621190  RH  036%=      5-min Rain = 0
KGU1 161932Z 08010KT M06/M19 A3049 RMK A01 T10631189  RH  037%=      5-min Rain = 0
KGU1 161933Z 06007KT M06/M19 A3049 RMK A01 T10621188  RH  037%=      5-min Rain = 0
KGU1 161934Z 06008KT M06/M19 A3049 RMK A01 T10611188  RH  037%=      5-min Rain = 0
KGU1 161935Z 06007KT M06/M19 A3049 RMK A01 T10601187  RH  037%=      5-min Rain = 0
KGU1 161936Z 07008KT M06/M19 A3049 RMK A01 T10601190  RH  036%=      5-min Rain = 0
KGU1 161937Z 05009KT M06/M19 A3049 RMK A01 T10611188  RH  037%=      5-min Rain = 0
KGU1 161938Z 06011KT M06/M19 A3049 RMK A01 T10611189  RH  037%=      5-min Rain = 0
KGU1 161939Z 07009KT M06/M19 A3049 RMK A01 T10621188  RH  037%=      5-min Rain = 0
KGU1 161940Z 06006KT M06/M19 A3049 RMK A01 T10611186  RH  037%=      5-min Rain = 0
KGU1 161941Z 06006KT M06/M19 A3049 RMK A01 T10601187  RH  037%=      5-min Rain = 0
KGU1 161942Z 07008KT M06/M19 A3049 RMK A01 T10601189  RH  036%=      5-min Rain = 0
KGU1 161943Z 08006KT M06/M19 A3048 RMK A01 T10601188  RH  036%=      5-min Rain = 0
KGU1 161944Z 08006KT M06/M19 A3048 RMK A01 T10601187  RH  037%=      5-min Rain = 0
KGU1 161945Z 07008KT M06/M19 A3048 RMK A01 T10591187  RH  036%=      5-min Rain = 0
KGU1 161946Z 06008KT M06/M19 A3048 RMK A01 T10591187  RH  036%=      5-min Rain = 0
KGU1 161947Z 05008KT M06/M19 A3048 RMK A01 T10591189  RH  036%=      5-min Rain = 0
KGU1 161948Z 06009KT M06/M19 A3048 RMK A01 T10591187  RH  036%=      5-min Rain = 0
KGU1 161949Z 07008KT M06/M19 A3048 RMK A01 T10601186  RH  037%=      5-min Rain = 0
KGU1 161950Z 08007KT M06/M19 A3048 RMK A01 T10601188  RH  036%=      5-min Rain = 0
KGU1 161951Z 07006KT M06/M19 A3048 RMK A01 T10611187  RH  037%=      5-min Rain = 0
KGU1 161952Z 07008KT M06/M19 A3048 RMK A01 T10601186  RH  037%=      5-min Rain = 0
KGU1 161953Z 07008KT M06/M19 A3048 RMK A01 T10601188  RH  037%=      5-min Rain = 0
KGU1 161954Z 06008KT M06/M19 A3048 RMK A01 T10621187  RH  037%=      5-min Rain = 0
KGU1 161955Z 07008KT M06/M19 A3048 RMK A01 T10621185  RH  038%=      5-min Rain = 0
KGU1 161956Z 06006KT M06/M19 A3048 RMK A01 T10621186  RH  038%=      5-min Rain = 0
KGU1 161957Z 06005KT M06/M18 A3048 RMK A01 T10611183  RH  038%=      5-min Rain = 0
KGU1 161958Z 06006KT M06/M18 A3048 RMK A01 T10601184  RH  037%=      5-min Rain = 0
KGU1 161959Z 06006KT M06/M18 A3048 RMK A01 T10581184  RH  037%=      5-min Rain = 0
KGU1 162000Z 06007KT M06/M19 A3048 RMK A01 T10581186  RH  036%=      5-min Rain = 0
KGU1 162001Z 08010KT M06/M19 A3048 RMK A01 T10581185  RH  037%=      5-min Rain = 0
KGU1 162002Z 07009KT M06/M19 A3048 RMK A01 T10591186  RH  037%=      5-min Rain = 0
KGU1 162003Z 06008KT M06/M19 A3048 RMK A01 T10601186  RH  037%=      5-min Rain = 0
KGU1 162004Z 06010KT M06/M19 A3048 RMK A01 T10611186  RH  037%=      5-min Rain = 0
KGU1 162005Z 07009KT M06/M18 A3048 RMK A01 T10611184  RH  038%=      5-min Rain = 0
KGU1 162006Z 08008KT M06/M18 A3048 RMK A01 T10601184  RH  038%=      5-min Rain = 0
KGU1 162007Z 07007KT M06/M18 A3048 RMK A01 T10591183  RH  038%=      5-min Rain = 0
KGU1 162008Z 08007KT M06/M19 A3048 RMK A01 T10591185  RH  037%=      5-min Rain = 0
KGU1 162009Z 08007KT M06/M18 A3048 RMK A01 T10591184  RH  037%=      5-min Rain = 0
KGU1 162010Z 08007KT M06/M18 A3048 RMK A01 T10601183  RH  038%=      5-min Rain = 0
KGU1 162011Z 08009KT M06/M19 A3047 RMK A01 T10591185  RH  037%=      5-min Rain = 0
KGU1 162012Z 08008KT M06/M18 A3047 RMK A01 T10591183  RH  038%=      5-min Rain = 0
KGU1 162013Z 08007KT M06/M18 A3047 RMK A01 T10591184  RH  037%=      5-min Rain = 0
KGU1 162014Z 06006KT M06/M18 A3047 RMK A01 T10591181  RH  038%=      5-min Rain = 0
KGU1 162015Z 06009KT M06/M18 A3047 RMK A01 T10581184  RH  037%=      5-min Rain = 0
KGU1 162016Z 06007KT M06/M19 A3047 RMK A01 T10591185  RH  037%=      5-min Rain = 0
KGU1 162017Z 07007KT M06/M18 A3047 RMK A01 T10591183  RH  038%=      5-min Rain = 0
KGU1 162018Z 06007KT M06/M19 A3047 RMK A01 T10591185  RH  037%=      5-min Rain = 0
KGU1 162019Z 07009KT M06/M19 A3047 RMK A01 T10601185  RH  037%=      5-min Rain = 0
KGU1 162020Z 06009KT M06/M19 A3047 RMK A01 T10611185  RH  037%=      5-min Rain = 0
KGU1 162021Z 06009KT M06/M18 A3047 RMK A01 T10611184  RH  038%=      5-min Rain = 0
KGU1 162022Z 06007KT M06/M18 A3047 RMK A01 T10611184  RH  038%=      5-min Rain = 0
KGU1 162023Z 07008KT M06/M18 A3047 RMK A01 T10611184  RH  038%=      5-min Rain = 0
KGU1 162024Z 08008KT M06/M19 A3047 RMK A01 T10611185  RH  038%=      5-min Rain = 0
KGU1 162025Z 07007KT M06/M18 A3047 RMK A01 T10621184  RH  038%=      5-min Rain = 0
KGU1 162026Z 08006KT M06/M19 A3047 RMK A01 T10611185  RH  038%=      5-min Rain = 0
KGU1 162027Z 07008KT M06/M18 A3047 RMK A01 T10621184  RH  038%=      5-min Rain = 0
KGU1 162028Z 07009KT M06/M18 A3047 RMK A01 T10621184  RH  038%=      5-min Rain = 0
KGU1 162029Z 07007KT M06/M18 A3047 RMK A01 T10621184  RH  038%=      5-min Rain = 0
KGU1 162030Z 07005KT M06/M18 A3047 RMK A01 T10621183  RH  038%=      5-min Rain = 0
KGU1 162031Z 07008KT M06/M18 A3047 RMK A01 T10611184  RH  038%=      5-min Rain = 0
KGU1 162032Z 08007KT M06/M19 A3047 RMK A01 T10621185  RH  038%=      5-min Rain = 0
KGU1 162033Z 08009KT M06/M18 A3047 RMK A01 T10621184  RH  038%=      5-min Rain = 0
KGU1 162034Z 09008KT M06/M18 A3047 RMK A01 T10621183  RH  038%=      5-min Rain = 0
KGU1 162035Z 08008KT M06/M18 A3047 RMK A01 T10611184  RH  038%=      5-min Rain = 0
KGU1 162036Z 09007KT M06/M18 A3047 RMK A01 T10621184  RH  038%=      5-min Rain = 0
KGU1 162037Z 07006KT M06/M18 A3047 RMK A01 T10611183  RH  038%=      5-min Rain = 0
KGU1 162038Z 06008KT M06/M18 A3047 RMK A01 T10611184  RH  038%=      5-min Rain = 0
KGU1 162039Z 07007KT M06/M18 A3047 RMK A01 T10601184  RH  038%=      5-min Rain = 0
KGU1 162040Z 07009KT M06/M18 A3046 RMK A01 T10601184  RH  038%=      5-min Rain = 0
KGU1 162041Z 07008KT M06/M19 A3046 RMK A01 T10611186  RH  037%=      5-min Rain = 0
KGU1 162042Z 08007KT M06/M19 A3046 RMK A01 T10631186  RH  038%=      5-min Rain = 0
KGU1 162043Z 06007KT M06/M18 A3046 RMK A01 T10631184  RH  038%=      5-min Rain = 0
KGU1 162044Z 07007KT M06/M18 A3046 RMK A01 T10621184  RH  038%=      5-min Rain = 0
KGU1 162045Z 08007KT M06/M18 A3046 RMK A01 T10611184  RH  038%=      5-min Rain = 0
KGU1 162046Z 08008KT M06/M18 A3046 RMK A01 T10611184  RH  038%=      5-min Rain = 0
KGU1 162047Z 08008KT M06/M18 A3046 RMK A01 T10611184  RH  038%=      5-min Rain = 0
KGU1 162048Z 06009KT M06/M18 A3046 RMK A01 T10601182  RH  038%=      5-min Rain = 0
KGU1 162049Z 06008KT M06/M18 A3046 RMK A01 T10601184  RH  038%=      5-min Rain = 0
KGU1 162050Z 05007KT M06/M18 A3046 RMK A01 T10611183  RH  038%=      5-min Rain = 0
KGU1 162051Z 05005KT M06/M18 A3046 RMK A01 T10611183  RH  038%=      5-min Rain = 0
KGU1 162052Z 06009KT M06/M18 A3046 RMK A01 T10601183  RH  038%=      5-min Rain = 0
KGU1 162053Z 07009KT M06/M18 A3046 RMK A01 T10601184  RH  037%=      5-min Rain = 0
KGU1 162054Z 08008KT M06/M18 A3046 RMK A01 T10601184  RH  038%=      5-min Rain = 0
KGU1 162055Z 07008KT M06/M18 A3046 RMK A01 T10601184  RH  038%=      5-min Rain = 0
KGU1 162056Z 06007G12KT M06/M18 A3046 RMK A01 T10591182  RH  038%=      5-min Rain = 0
KGU1 162057Z 06009KT M06/M19 A3046 RMK A01 T10591185  RH  037%=      5-min Rain = 0
KGU1 162058Z 06007KT M06/M19 A3046 RMK A01 T10601186  RH  037%=      5-min Rain = 0
KGU1 162059Z 07008KT M06/M19 A3046 RMK A01 T10611185  RH  038%=      5-min Rain = 0
KGU1 162100Z 08007KT M06/M18 A3046 RMK A01 T10611184  RH  038%=      5-min Rain = 0
KGU1 162101Z 07008KT M06/M18 A3046 RMK A01 T10611183  RH  038%=      5-min Rain = 0
KGU1 162102Z 05009KT M06/M18 A3046 RMK A01 T10601183  RH  038%=      5-min Rain = 0
KGU1 162103Z 06008KT M06/M18 A3046 RMK A01 T10591184  RH  037%=      5-min Rain = 0
KGU1 162104Z 07010KT M06/M19 A3046 RMK A01 T10601186  RH  037%=      5-min Rain = 0
KGU1 162105Z 08009KT M06/M19 A3046 RMK A01 T10611186  RH  037%=      5-min Rain = 0
KGU1 162106Z 09010KT M06/M19 A3045 RMK A01 T10621185  RH  038%=      5-min Rain = 0
KGU1 162107Z 07011KT M06/M18 A3045 RMK A01 T10621184  RH  038%=      5-min Rain = 0
KGU1 162108Z 05010KT M06/M19 A3045 RMK A01 T10611185  RH  038%=      5-min Rain = 0
KGU1 162109Z 07007KT M06/M18 A3045 RMK A01 T10611184  RH  038%=      5-min Rain = 0
KGU1 162110Z 07008KT M06/M18 A3045 RMK A01 T10611184  RH  038%=      5-min Rain = 0
KGU1 162111Z 08007KT M06/M18 A3045 RMK A01 T10601183  RH  038%=      5-min Rain = 0
KGU1 162112Z 08007KT M06/M18 A3045 RMK A01 T10591183  RH  038%=      5-min Rain = 0
KGU1 162113Z 06010KT M06/M18 A3045 RMK A01 T10591183  RH  038%=      5-min Rain = 0
KGU1 162114Z 06011KT M06/M18 A3045 RMK A01 T10591184  RH  037%=      5-min Rain = 0
KGU1 162115Z 07007KT M06/M18 A3045 RMK A01 T10591183  RH  038%=      5-min Rain = 0
KGU1 162116Z 08007KT M06/M18 A3045 RMK A01 T10591183  RH  038%=      5-min Rain = 0
KGU1 162117Z 05010KT M06/M18 A3045 RMK A01 T10581182  RH  037%=      5-min Rain = 0
KGU1 162118Z 05010KT M06/M19 A3045 RMK A01 T10581185  RH  037%=      5-min Rain = 0
KGU1 162119Z 06008KT M06/M18 A3045 RMK A01 T10591183  RH  038%=      5-min Rain = 0
KGU1 162120Z 07007KT M06/M18 A3045 RMK A01 T10581182  RH  038%=      5-min Rain = 0
KGU1 162121Z 06009KT M06/M19 A3045 RMK A01 T10581185  RH  037%=      5-min Rain = 0
KGU1 162122Z 06008KT M06/M19 A3045 RMK A01 T10601185  RH  037%=      5-min Rain = 0
KGU1 162123Z 06009KT M06/M18 A3045 RMK A01 T10601183  RH  038%=      5-min Rain = 0
KGU1 162124Z 06009KT M06/M18 A3045 RMK A01 T10601183  RH  038%=      5-min Rain = 0
KGU1 162125Z 05009KT M06/M18 A3045 RMK A01 T10601184  RH  038%=      5-min Rain = 0
KGU1 162126Z 08008KT M06/M18 A3045 RMK A01 T10611183  RH  038%=      5-min Rain = 0
KGU1 162127Z 08010KT M06/M18 A3045 RMK A01 T10611184  RH  038%=      5-min Rain = 0
KGU1 162128Z 07009KT M06/M18 A3045 RMK A01 T10611183  RH  038%=      5-min Rain = 0
KGU1 162129Z 07010KT M06/M18 A3045 RMK A01 T10611184  RH  038%=      5-min Rain = 0
KGU1 162130Z 07009KT M06/M18 A3045 RMK A01 T10621183  RH  039%=      5-min Rain = 0
KGU1 162131Z 07009KT M06/M18 A3044 RMK A01 T10621183  RH  038%=      5-min Rain = 0
KGU1 162132Z 07009KT M06/M18 A3044 RMK A01 T10611182  RH  038%=      5-min Rain = 0
KGU1 162133Z 06006KT M06/M18 A3045 RMK A01 T10601179  RH  039%=      5-min Rain = 0
KGU1 162134Z 06008KT M06/M18 A3045 RMK A01 T10581181  RH  038%=      5-min Rain = 0
KGU1 162135Z 06007KT M06/M18 A3045 RMK A01 T10581182  RH  038%=      5-min Rain = 0
KGU1 162136Z 08007KT M06/M18 A3044 RMK A01 T10581181  RH  038%=      5-min Rain = 0
KGU1 162137Z 08006KT M06/M18 A3044 RMK A01 T10571181  RH  038%=      5-min Rain = 0
KGU1 162138Z 08008KT M06/M18 A3044 RMK A01 T10571183  RH  037%=      5-min Rain = 0
KGU1 162139Z 08007KT M06/M18 A3044 RMK A01 T10581184  RH  037%=      5-min Rain = 0
KGU1 162140Z 08008KT M06/M18 A3044 RMK A01 T10591182  RH  038%=      5-min Rain = 0
KGU1 162141Z 08005KT M06/M18 A3044 RMK A01 T10601184  RH  037%=      5-min Rain = 0
KGU1 162142Z 08005KT M06/M18 A3044 RMK A01 T10601182  RH  038%=      5-min Rain = 0
KGU1 162143Z 08008KT M06/M18 A3044 RMK A01 T10591181  RH  038%=      5-min Rain = 0
KGU1 162144Z 08007KT M06/M18 A3044 RMK A01 T10581182  RH  038%=      5-min Rain = 0
KGU1 162145Z 07009KT M06/M18 A3044 RMK A01 T10581184  RH  037%=      5-min Rain = 0
KGU1 162146Z 06008KT M06/M18 A3044 RMK A01 T10591183  RH  037%=      5-min Rain = 0
KGU1 162147Z 07007KT M06/M18 A3044 RMK A01 T10591181  RH  038%=      5-min Rain = 0
KGU1 162148Z 07007KT M06/M18 A3044 RMK A01 T10581182  RH  038%=      5-min Rain = 0
KGU1 162149Z 07007KT M06/M18 A3044 RMK A01 T10581183  RH  037%=      5-min Rain = 0
KGU1 162150Z 08006KT M06/M18 A3044 RMK A01 T10591181  RH  038%=      5-min Rain = 0
KGU1 162151Z 09007KT M06/M18 A3044 RMK A01 T10581183  RH  038%=      5-min Rain = 0
KGU1 162152Z 09006KT M06/M18 A3044 RMK A01 T10581182  RH  038%=      5-min Rain = 0
KGU1 162153Z 08007KT M06/M18 A3044 RMK A01 T10581180  RH  038%=      5-min Rain = 0
KGU1 162154Z 07009KT M06/M18 A3044 RMK A01 T10571182  RH  037%=      5-min Rain = 0
KGU1 162155Z 08009KT M06/M18 A3044 RMK A01 T10581181  RH  038%=      5-min Rain = 0
KGU1 162156Z 08008KT M06/M18 A3044 RMK A01 T10581183  RH  037%=      5-min Rain = 0
KGU1 162157Z 09008KT M06/M18 A3044 RMK A01 T10591182  RH  038%=      5-min Rain = 0
KGU1 162158Z 08006KT M06/M18 A3044 RMK A01 T10591182  RH  038%=      5-min Rain = 0
KGU1 162159Z 06006KT M06/M18 A3044 RMK A01 T10581180  RH  038%=      5-min Rain = 0
KGU1 162200Z 06006KT M06/M18 A3044 RMK A01 T10581181  RH  038%=      5-min Rain = 0
KGU1 162201Z 06006KT M06/M18 A3044 RMK A01 T10571181  RH  038%=      5-min Rain = 0
KGU1 162202Z 05005KT M06/M18 A3044 RMK A01 T10581183  RH  037%=      5-min Rain = 0
KGU1 162203Z 08007KT M06/M18 A3044 RMK A01 T10591182  RH  038%=      5-min Rain = 0
KGU1 162204Z 08006KT M06/M18 A3044 RMK A01 T10591181  RH  038%=      5-min Rain = 0
KGU1 162205Z 09006KT M06/M18 A3044 RMK A01 T10581180  RH  038%=      5-min Rain = 0
KGU1 162206Z 08006KT M06/M18 A3044 RMK A01 T10571180  RH  038%=      5-min Rain = 0
KGU1 162207Z 06006KT M06/M18 A3044 RMK A01 T10571180  RH  038%=      5-min Rain = 0
KGU1 162208Z 08006KT M06/M18 A3044 RMK A01 T10561181  RH  038%=      5-min Rain = 0
KGU1 162209Z 08006KT M06/M18 A3044 RMK A01 T10561180  RH  038%=      5-min Rain = 0
KGU1 162210Z 08005KT M06/M18 A3044 RMK A01 T10561180  RH  038%=      5-min Rain = 0
KGU1 162211Z 07005KT M06/M18 A3043 RMK A01 T10561181  RH  037%=      5-min Rain = 0
KGU1 162212Z 08007KT M06/M18 A3043 RMK A01 T10561181  RH  037%=      5-min Rain = 0
KGU1 162213Z 08006KT M06/M18 A3043 RMK A01 T10561180  RH  038%=      5-min Rain = 0
KGU1 162214Z 07006KT M06/M18 A3043 RMK A01 T10551181  RH  037%=      5-min Rain = 0
KGU1 162215Z 08005KT M05/M18 A3043 RMK A01 T10541180  RH  037%=      5-min Rain = 0
KGU1 162216Z 09006KT M05/M18 A3043 RMK A01 T10531179  RH  037%=      5-min Rain = 0
KGU1 162217Z 09008KT M05/M18 A3043 RMK A01 T10521180  RH  036%=      5-min Rain = 0
KGU1 162218Z 10008KT M05/M18 A3043 RMK A01 T10521181  RH  036%=      5-min Rain = 0
KGU1 162219Z 09008KT M05/M18 A3043 RMK A01 T10531181  RH  037%=      5-min Rain = 0
KGU1 162220Z 08008KT M05/M18 A3043 RMK A01 T10541182  RH  036%=      5-min Rain = 0
KGU1 162221Z 09006KT M06/M18 A3043 RMK A01 T10551179  RH  038%=      5-min Rain = 0
KGU1 162222Z 08006KT M05/M18 A3043 RMK A01 T10531179  RH  037%=      5-min Rain = 0
KGU1 162223Z 06007KT M05/M18 A3043 RMK A01 T10521181  RH  037%=      5-min Rain = 0
KGU1 162224Z 08005KT M05/M18 A3043 RMK A01 T10521179  RH  037%=      5-min Rain = 0
KGU1 162225Z 09005KT M05/M18 A3043 RMK A01 T10501177  RH  037%=      5-min Rain = 0
KGU1 162226Z 08008KT M05/M18 A3043 RMK A01 T10491182  RH  035%=      5-min Rain = 0
KGU1 162227Z 08005KT M05/M18 A3043 RMK A01 T10501183  RH  035%=      5-min Rain = 0
KGU1 162228Z 09004KT M05/M18 A3043 RMK A01 T10521180  RH  037%=      5-min Rain = 0
KGU1 162229Z 09006KT M05/M18 A3043 RMK A01 T10521181  RH  036%=      5-min Rain = 0
KGU1 162230Z 09006KT M05/M18 A3043 RMK A01 T10521181  RH  036%=      5-min Rain = 0
KGU1 162231Z 08009KT M05/M18 A3043 RMK A01 T10531182  RH  036%=      5-min Rain = 0
KGU1 162232Z 07007KT M05/M18 A3043 RMK A01 T10531182  RH  036%=      5-min Rain = 0
KGU1 162233Z 08008KT M05/M18 A3043 RMK A01 T10541181  RH  037%=      5-min Rain = 0
KGU1 162234Z 08006KT M05/M18 A3043 RMK A01 T10521179  RH  037%=      5-min Rain = 0
KGU1 162235Z 08007KT M05/M18 A3043 RMK A01 T10511179  RH  037%=      5-min Rain = 0
KGU1 162236Z 09008KT M05/M18 A3043 RMK A01 T10501181  RH  036%=      5-min Rain = 0
KGU1 162237Z 09008KT M05/M18 A3043 RMK A01 T10501183  RH  035%=      5-min Rain = 0
KGU1 162238Z 09008KT M05/M18 A3043 RMK A01 T10531183  RH  036%=      5-min Rain = 0
KGU1 162239Z 08009KT M05/M18 A3043 RMK A01 T10541182  RH  037%=      5-min Rain = 0
KGU1 162240Z 08008KT M05/M18 A3043 RMK A01 T10541182  RH  037%=      5-min Rain = 0
KGU1 162241Z 06006KT M05/M18 A3043 RMK A01 T10541181  RH  037%=      5-min Rain = 0
KGU1 162242Z 08006KT M05/M18 A3043 RMK A01 T10541182  RH  037%=      5-min Rain = 0
KGU1 162243Z 08006KT M06/M18 A3043 RMK A01 T10551183  RH  037%=      5-min Rain = 0
KGU1 162244Z 07006KT M06/M18 A3043 RMK A01 T10551180  RH  038%=      5-min Rain = 0
KGU1 162245Z 07006KT M06/M18 A3043 RMK A01 T10551180  RH  037%=      5-min Rain = 0
KGU1 162246Z 08007KT M06/M18 A3043 RMK A01 T10551181  RH  037%=      5-min Rain = 0
KGU1 162247Z 07006KT M06/M18 A3043 RMK A01 T10551182  RH  037%=      5-min Rain = 0
KGU1 162248Z 09008KT M06/M18 A3043 RMK A01 T10561183  RH  037%=      5-min Rain = 0
KGU1 162249Z 07008KT M06/M18 A3043 RMK A01 T10571182  RH  037%=      5-min Rain = 0
KGU1 162250Z 07006KT M06/M18 A3043 RMK A01 T10581181  RH  038%=      5-min Rain = 0
KGU1 162251Z 08007KT M06/M18 A3043 RMK A01 T10571182  RH  038%=      5-min Rain = 0
KGU1 162252Z 09008KT M06/M18 A3043 RMK A01 T10571183  RH  037%=      5-min Rain = 0
KGU1 162253Z 08008KT M06/M18 A3043 RMK A01 T10581183  RH  038%=      5-min Rain = 0
KGU1 162254Z 07008KT M06/M18 A3043 RMK A01 T10591183  RH  038%=      5-min Rain = 0
KGU1 162255Z 07008KT M06/M18 A3043 RMK A01 T10591182  RH  038%=      5-min Rain = 0
KGU1 162256Z 07007KT M06/M18 A3043 RMK A01 T10601183  RH  038%=      5-min Rain = 0
KGU1 162257Z 07009KT M06/M18 A3043 RMK A01 T10611184  RH  038%=      5-min Rain = 0
KGU1 162258Z 08008KT M06/M18 A3043 RMK A01 T10611184  RH  038%=      5-min Rain = 0
KGU1 162259Z 08008KT M06/M18 A3043 RMK A01 T10621182  RH  039%=      5-min Rain = 0
KGU1 162300Z 08008KT M06/M18 A3043 RMK A01 T10611183  RH  038%=      5-min Rain = 0
KGU1 162301Z 08008KT M06/M18 A3043 RMK A01 T10611182  RH  039%=      5-min Rain = 0
KGU1 162302Z 08009KT M06/M18 A3043 RMK A01 T10611183  RH  038%=      5-min Rain = 0
KGU1 162303Z 07007KT M06/M18 A3043 RMK A01 T10611182  RH  038%=      5-min Rain = 0
KGU1 162304Z 07006KT M06/M18 A3043 RMK A01 T10601181  RH  039%=      5-min Rain = 0
KGU1 162305Z 06006KT M06/M18 A3043 RMK A01 T10591182  RH  038%=      5-min Rain = 0
KGU1 162306Z 06006KT M06/M18 A3043 RMK A01 T10591182  RH  038%=      5-min Rain = 0
KGU1 162307Z 08007KT M06/M18 A3043 RMK A01 T10591182  RH  038%=      5-min Rain = 0
KGU1 162308Z 09007KT M06/M18 A3043 RMK A01 T10591182  RH  038%=      5-min Rain = 0
KGU1 162309Z 08007KT M06/M18 A3043 RMK A01 T10591183  RH  038%=      5-min Rain = 0
KGU1 162310Z 08006KT M06/M18 A3043 RMK A01 T10591182  RH  038%=      5-min Rain = 0
KGU1 162311Z 08006KT M06/M18 A3043 RMK A01 T10591182  RH  038%=      5-min Rain = 0
KGU1 162312Z 07006KT M06/M18 A3043 RMK A01 T10591181  RH  038%=      5-min Rain = 0
KGU1 162313Z 08005KT M06/M18 A3043 RMK A01 T10591181  RH  038%=      5-min Rain = 0
KGU1 162314Z 08007KT M06/M18 A3043 RMK A01 T10581181  RH  038%=      5-min Rain = 0
KGU1 162315Z 08006KT M06/M18 A3043 RMK A01 T10581182  RH  038%=      5-min Rain = 0
KGU1 162316Z 07005KT M06/M18 A3043 RMK A01 T10581180  RH  038%=      5-min Rain = 0
KGU1 162317Z 06008KT M06/M18 A3043 RMK A01 T10581182  RH  037%=      5-min Rain = 0
KGU1 162318Z 06007KT M06/M18 A3043 RMK A01 T10581182  RH  038%=      5-min Rain = 0
KGU1 162319Z 06007KT M06/M18 A3043 RMK A01 T10591181  RH  038%=      5-min Rain = 0
KGU1 162320Z 07006KT M06/M18 A3043 RMK A01 T10591182  RH  038%=      5-min Rain = 0
KGU1 162321Z 08009KT M06/M18 A3042 RMK A01 T10591182  RH  038%=      5-min Rain = 0
KGU1 162322Z 08008KT M06/M18 A3042 RMK A01 T10591181  RH  038%=      5-min Rain = 0
KGU1 162323Z 08007KT M06/M18 A3043 RMK A01 T10591181  RH  038%=      5-min Rain = 0
KGU1 162324Z 08007KT M06/M18 A3042 RMK A01 T10581182  RH  038%=      5-min Rain = 0
KGU1 162325Z 07007KT M06/M18 A3043 RMK A01 T10581181  RH  038%=      5-min Rain = 0
KGU1 162326Z 07008KT M06/M18 A3042 RMK A01 T10581181  RH  038%=      5-min Rain = 0
KGU1 162327Z 08007KT M06/M18 A3042 RMK A01 T10591183  RH  038%=      5-min Rain = 0
KGU1 162328Z 08008KT M06/M18 A3042 RMK A01 T10591182  RH  038%=      5-min Rain = 0
KGU1 162329Z 07007KT M06/M18 A3042 RMK A01 T10601182  RH  038%=      5-min Rain = 0
KGU1 162330Z 07006KT M06/M18 A3042 RMK A01 T10601181  RH  039%=      5-min Rain = 0
KGU1 162331Z 07006KT M06/M18 A3042 RMK A01 T10601181  RH  039%=      5-min Rain = 0
KGU1 162332Z 08007KT M06/M18 A3042 RMK A01 T10601184  RH  038%=      5-min Rain = 0
KGU1 162333Z 08007KT M06/M18 A3043 RMK A01 T10611182  RH  039%=      5-min Rain = 0
KGU1 162334Z 08007KT M06/M18 A3043 RMK A01 T10611181  RH  039%=      5-min Rain = 0
KGU1 162335Z 08009KT M06/M18 A3043 RMK A01 T10601182  RH  038%=      5-min Rain = 0
KGU1 162336Z 08008KT M06/M18 A3042 RMK A01 T10611182  RH  038%=      5-min Rain = 0
KGU1 162337Z 07008KT M06/M18 A3042 RMK A01 T10611182  RH  039%=      5-min Rain = 0
KGU1 162338Z 07006KT M06/M18 A3043 RMK A01 T10621182  RH  039%=      5-min Rain = 0
KGU1 162339Z 08007KT M06/M18 A3042 RMK A01 T10621182  RH  039%=      5-min Rain = 0
KGU1 162340Z 06008KT M06/M18 A3043 RMK A01 T10621182  RH  039%=      5-min Rain = 0
KGU1 162341Z 06005KT M06/M18 A3043 RMK A01 T10621181  RH  039%=      5-min Rain = 0
KGU1 162342Z 06006KT M06/M18 A3043 RMK A01 T10621181  RH  039%=      5-min Rain = 0
KGU1 162343Z 07007KT M06/M18 A3043 RMK A01 T10621181  RH  039%=      5-min Rain = 0
KGU1 162344Z 08008KT M06/M18 A3042 RMK A01 T10631183  RH  039%=      5-min Rain = 0
KGU1 162345Z 09007KT M06/M18 A3042 RMK A01 T10631181  RH  039%=      5-min Rain = 0
KGU1 162346Z 08007KT M06/M18 A3042 RMK A01 T10631181  RH  039%=      5-min Rain = 0
KGU1 162347Z 09008KT M06/M18 A3042 RMK A01 T10631182  RH  039%=      5-min Rain = 0
KGU1 162348Z 08007KT M06/M18 A3042 RMK A01 T10631182  RH  039%=      5-min Rain = 0
KGU1 162349Z 08006KT M06/M18 A3043 RMK A01 T10641181  RH  040%=      5-min Rain = 0
KGU1 162350Z 08007KT M06/M18 A3043 RMK A01 T10631182  RH  039%=      5-min Rain = 0
KGU1 162351Z 07006KT M06/M18 A3043 RMK A01 T10641182  RH  039%=      5-min Rain = 0
KGU1 162352Z 05004KT M06/M18 A3043 RMK A01 T10641181  RH  040%=      5-min Rain = 0
KGU1 162353Z 08006KT M06/M18 A3043 RMK A01 T10641182  RH  039%=      5-min Rain = 0
KGU1 162354Z 08008KT M06/M18 A3043 RMK A01 T10641182  RH  039%=      5-min Rain = 0
KGU1 162355Z 08007KT M06/M18 A3043 RMK A01 T10641182  RH  039%=      5-min Rain = 0
KGU1 162356Z 08007KT M07/M18 A3043 RMK A01 T10651182  RH  039%=      5-min Rain = 0
KGU1 162357Z 09007KT M07/M18 A3043 RMK A01 T10651181  RH  040%=      5-min Rain = 0
KGU1 162358Z 08005KT M07/M18 A3043 RMK A01 T10651181  RH  040%=      5-min Rain = 0
KGU1 162359Z 08007KT M07/M18 A3043 RMK A01 T10651182  RH  040%=      5-min Rain = 0
KGU1 170000Z 08007KT M07/M18 A3043 RMK A01 T10651181  RH  040%=      5-min Rain = 0
KGU1 170001Z 07006KT M07/M18 A3043 RMK A01 T10651181  RH  040%=      5-min Rain = 0
KGU1 170002Z 08007KT M07/M18 A3043 RMK A01 T10651182  RH  040%=      5-min Rain = 0
KGU1 170003Z 09007KT M07/M18 A3043 RMK A01 T10651182  RH  040%=      5-min Rain = 0
KGU1 170004Z 08006KT M07/M18 A3043 RMK A01 T10661181  RH  040%=      5-min Rain = 0
KGU1 170005Z 07006KT M07/M18 A3043 RMK A01 T10661180  RH  040%=      5-min Rain = 0
KGU1 170006Z 07006KT M07/M18 A3043 RMK A01 T10651180  RH  040%=      5-min Rain = 0
KGU1 170007Z 07007KT M07/M18 A3043 RMK A01 T10651181  RH  040%=      5-min Rain = 0
KGU1 170008Z 07007KT M07/M18 A3043 RMK A01 T10661182  RH  040%=      5-min Rain = 0
KGU1 170009Z 07007KT M07/M18 A3043 RMK A01 T10661182  RH  040%=      5-min Rain = 0
KGU1 170010Z 06007KT M07/M18 A3043 RMK A01 T10661182  RH  040%=      5-min Rain = 0
KGU1 170011Z 08006KT M07/M18 A3043 RMK A01 T10671181  RH  040%=      5-min Rain = 0
KGU1 170012Z 08005KT M07/M18 A3043 RMK A01 T10661179  RH  041%=      5-min Rain = 0
KGU1 170013Z 08007KT M07/M18 A3043 RMK A01 T10661181  RH  040%=      5-min Rain = 0
KGU1 170014Z 07007KT M07/M18 A3043 RMK A01 T10661182  RH  040%=      5-min Rain = 0
KGU1 170015Z 06006KT M07/M18 A3043 RMK A01 T10661181  RH  040%=      5-min Rain = 0
KGU1 170016Z 05006KT M07/M18 A3043 RMK A01 T10661180  RH  041%=      5-min Rain = 0
KGU1 170017Z 08006KT M07/M18 A3043 RMK A01 T10661180  RH  041%=      5-min Rain = 0
KGU1 170018Z 08007KT M07/M18 A3043 RMK A01 T10661182  RH  040%=      5-min Rain = 0
KGU1 170019Z 07007KT M07/M18 A3043 RMK A01 T10661182  RH  040%=      5-min Rain = 0
KGU1 170020Z 08008KT M07/M18 A3043 RMK A01 T10671182  RH  040%=      5-min Rain = 0
KGU1 170021Z 08006KT M07/M18 A3043 RMK A01 T10671182  RH  040%=      5-min Rain = 0
KGU1 170022Z 07006KT M07/M18 A3043 RMK A01 T10681181  RH  041%=      5-min Rain = 0
KGU1 170023Z 07007KT M07/M18 A3043 RMK A01 T10681181  RH  041%=      5-min Rain = 0
KGU1 170024Z 07007KT M07/M18 A3043 RMK A01 T10671181  RH  041%=      5-min Rain = 0
KGU1 170025Z 07007KT M07/M18 A3043 RMK A01 T10671181  RH  041%=      5-min Rain = 0
KGU1 170026Z 06008KT M07/M18 A3043 RMK A01 T10681182  RH  040%=      5-min Rain = 0
KGU1 170027Z 06006KT M07/M18 A3043 RMK A01 T10681182  RH  041%=      5-min Rain = 0
KGU1 170028Z 07005KT M07/M18 A3043 RMK A01 T10681182  RH  041%=      5-min Rain = 0
KGU1 170029Z 07005KT M07/M18 A3043 RMK A01 T10681181  RH  041%=      5-min Rain = 0
KGU1 170030Z 07006KT M07/M18 A3043 RMK A01 T10691181  RH  041%=      5-min Rain = 0
KGU1 170031Z 07005KT M07/M18 A3043 RMK A01 T10681180  RH  041%=      5-min Rain = 0
KGU1 170032Z 06005KT M07/M18 A3043 RMK A01 T10681181  RH  041%=      5-min Rain = 0
KGU1 170033Z 06006KT M07/M18 A3043 RMK A01 T10691183  RH  041%=      5-min Rain = 0
KGU1 170034Z 07007KT M07/M18 A3043 RMK A01 T10691182  RH  041%=      5-min Rain = 0
KGU1 170035Z 06006KT M07/M18 A3043 RMK A01 T10691182  RH  041%=      5-min Rain = 0
KGU1 170036Z 07006KT M07/M18 A3043 RMK A01 T10701182  RH  041%=      5-min Rain = 0
KGU1 170037Z 08006KT M07/M18 A3043 RMK A01 T10701183  RH  041%=      5-min Rain = 0
KGU1 170038Z 08005KT M07/M18 A3043 RMK A01 T10701182  RH  041%=      5-min Rain = 0
KGU1 170039Z 07004KT M07/M18 A3043 RMK A01 T10701182  RH  041%=      5-min Rain = 0
KGU1 170040Z 06005KT M07/M18 A3043 RMK A01 T10701182  RH  041%=      5-min Rain = 0
KGU1 170041Z 05004KT M07/M18 A3043 RMK A01 T10701180  RH  042%=      5-min Rain = 0
KGU1 170042Z 06004KT M07/M18 A3044 RMK A01 T10701180  RH  042%=      5-min Rain = 0
KGU1 170043Z 07006KT M07/M18 A3043 RMK A01 T10701181  RH  042%=      5-min Rain = 0
KGU1 170044Z 06005KT M07/M18 A3043 RMK A01 T10711183  RH  041%=      5-min Rain = 0
KGU1 170045Z 06005KT M07/M18 A3044 RMK A01 T10711182  RH  042%=      5-min Rain = 0
KGU1 170046Z 06005KT M07/M18 A3044 RMK A01 T10711181  RH  042%=      5-min Rain = 0
KGU1 170047Z 07006KT M07/M18 A3044 RMK A01 T10721183  RH  042%=      5-min Rain = 0
KGU1 170048Z 06006KT M07/M18 A3044 RMK A01 T10721184  RH  041%=      5-min Rain = 0
KGU1 170049Z 06004KT M07/M18 A3044 RMK A01 T10721183  RH  042%=      5-min Rain = 0
KGU1 170050Z 07006KT M07/M18 A3044 RMK A01 T10731184  RH  042%=      5-min Rain = 0
KGU1 170051Z 06005KT M07/M18 A3044 RMK A01 T10731184  RH  042%=      5-min Rain = 0
KGU1 170052Z 07006KT M07/M18 A3044 RMK A01 T10741184  RH  042%=      5-min Rain = 0
KGU1 170053Z 06007KT M07/M19 A3044 RMK A01 T10741185  RH  042%=      5-min Rain = 0
KGU1 170054Z 06005KT M08/M19 A3044 RMK A01 T10751185  RH  042%=      5-min Rain = 0
KGU1 170055Z 05004KT M08/M18 A3044 RMK A01 T10751183  RH  043%=      5-min Rain = 0
KGU1 170056Z 05004KT M08/M18 A3044 RMK A01 T10761183  RH  043%=      5-min Rain = 0
KGU1 170057Z 05005KT M08/M18 A3044 RMK A01 T10771184  RH  043%=      5-min Rain = 0
KGU1 170058Z 05005KT M08/M18 A3044 RMK A01 T10771184  RH  043%=      5-min Rain = 0
KGU1 170059Z 06005KT M08/M18 A3044 RMK A01 T10781184  RH  043%=      5-min Rain = 0
KGU1 170100Z 06004KT M08/M18 A3044 RMK A01 T10781184  RH  043%=      5-min Rain = 0
KGU1 170101Z 06004KT M08/M18 A3044 RMK A01 T10781183  RH  044%=      5-min Rain = 0
KGU1 170102Z 05004KT M08/M18 A3044 RMK A01 T10791183  RH  044%=      5-min Rain = 0
KGU1 170103Z 05005KT M08/M18 A3044 RMK A01 T10791184  RH  044%=      5-min Rain = 0
KGU1 170104Z 05005KT M08/M18 A3044 RMK A01 T10791184  RH  043%=      5-min Rain = 0
KGU1 170105Z 05004KT M08/M18 A3044 RMK A01 T10791184  RH  044%=      5-min Rain = 0
KGU1 170106Z 05005KT M08/M18 A3044 RMK A01 T10801184  RH  044%=      5-min Rain = 0
KGU1 170107Z 05005KT M08/M18 A3044 RMK A01 T10801183  RH  044%=      5-min Rain = 0
KGU1 170108Z 05005KT M08/M18 A3044 RMK A01 T10801184  RH  044%=      5-min Rain = 0
KGU1 170109Z 05005KT M08/M18 A3044 RMK A01 T10811184  RH  044%=      5-min Rain = 0
KGU1 170110Z 05005KT M08/M18 A3044 RMK A01 T10811184  RH  044%=      5-min Rain = 0
KGU1 170111Z 05004KT M08/M18 A3044 RMK A01 T10811184  RH  044%=      5-min Rain = 0
KGU1 170112Z 04003KT M08/M18 A3044 RMK A01 T10821183  RH  045%=      5-min Rain = 0
KGU1 170113Z 03004KT M08/M18 A3044 RMK A01 T10821182  RH  045%=      5-min Rain = 0
KGU1 170114Z 03004KT M08/M18 A3044 RMK A01 T10821182  RH  046%=      5-min Rain = 0
KGU1 170115Z 04004KT M08/M18 A3044 RMK A01 T10831182  RH  046%=      5-min Rain = 0
KGU1 170116Z 04003KT M08/M18 A3044 RMK A01 T10831182  RH  046%=      5-min Rain = 0
KGU1 170117Z 04003KT M08/M18 A3044 RMK A01 T10831182  RH  046%=      5-min Rain = 0
KGU1 170118Z 04003KT M08/M18 A3044 RMK A01 T10841182  RH  046%=      5-min Rain = 0
KGU1 170119Z 03003KT M08/M18 A3044 RMK A01 T10841181  RH  046%=      5-min Rain = 0
KGU1 170120Z 03003KT M08/M18 A3044 RMK A01 T10841181  RH  046%=      5-min Rain = 0
KGU1 170121Z 03003KT M08/M18 A3044 RMK A01 T10841181  RH  046%=      5-min Rain = 0
KGU1 170122Z 03003KT M08/M18 A3044 RMK A01 T10841181  RH  046%=      5-min Rain = 0
KGU1 170123Z 03003KT M09/M18 A3044 RMK A01 T10851181  RH  046%=      5-min Rain = 0
KGU1 170124Z 03004KT M09/M18 A3044 RMK A01 T10851181  RH  047%=      5-min Rain = 0
KGU1 170125Z 04003KT M09/M18 A3044 RMK A01 T10851182  RH  046%=      5-min Rain = 0
KGU1 170126Z 03004KT M09/M18 A3044 RMK A01 T10851181  RH  047%=      5-min Rain = 0
KGU1 170127Z 02004KT M09/M18 A3044 RMK A01 T10851181  RH  047%=      5-min Rain = 0
KGU1 170128Z 03004KT M09/M18 A3044 RMK A01 T10851180  RH  047%=      5-min Rain = 0
KGU1 170129Z 03003KT M09/M18 A3044 RMK A01 T10851181  RH  047%=      5-min Rain = 0
KGU1 170130Z 03003KT M09/M18 A3044 RMK A01 T10851181  RH  047%=      5-min Rain = 0
KGU1 170131Z 04004KT M09/M18 A3044 RMK A01 T10851181  RH  047%=      5-min Rain = 0
KGU1 170132Z 04004KT M09/M18 A3044 RMK A01 T10851181  RH  047%=      5-min Rain = 0
KGU1 170133Z 04004KT M09/M18 A3044 RMK A01 T10851181  RH  047%=      5-min Rain = 0
KGU1 170134Z 04004KT M09/M18 A3044 RMK A01 T10851181  RH  047%=      5-min Rain = 0
KGU1 170135Z 04003KT M09/M18 A3044 RMK A01 T10851180  RH  047%=      5-min Rain = 0
KGU1 170136Z 04003KT M09/M18 A3044 RMK A01 T10851180  RH  047%=      5-min Rain = 0
KGU1 170137Z 03003KT M09/M18 A3044 RMK A01 T10861180  RH  047%=      5-min Rain = 0
KGU1 170138Z 03004KT M09/M18 A3044 RMK A01 T10861181  RH  047%=      5-min Rain = 0
KGU1 170139Z 03004KT M09/M18 A3044 RMK A01 T10861182  RH  047%=      5-min Rain = 0
KGU1 170140Z 02004KT M09/M18 A3044 RMK A01 T10851182  RH  047%=      5-min Rain = 0
KGU1 170141Z 03004KT M09/M18 A3044 RMK A01 T10861181  RH  047%=      5-min Rain = 0
KGU1 170142Z 03004KT M09/M18 A3044 RMK A01 T10861181  RH  047%=      5-min Rain = 0
KGU1 170143Z 04004KT M09/M18 A3044 RMK A01 T10861182  RH  047%=      5-min Rain = 0
KGU1 170144Z 03004KT M09/M18 A3044 RMK A01 T10861182  RH  046%=      5-min Rain = 0
KGU1 170145Z 04004KT M09/M18 A3044 RMK A01 T10861182  RH  047%=      5-min Rain = 0
KGU1 170146Z 04004KT M09/M18 A3044 RMK A01 T10861181  RH  047%=      5-min Rain = 0
KGU1 170147Z 04004KT M09/M18 A3044 RMK A01 T10861182  RH  047%=      5-min Rain = 0
KGU1 170148Z 04003KT M09/M18 A3044 RMK A01 T10861181  RH  047%=      5-min Rain = 0
KGU1 170149Z 04003KT M09/M18 A3044 RMK A01 T10861181  RH  047%=      5-min Rain = 0
KGU1 170150Z 04003KT M09/M18 A3044 RMK A01 T10871181  RH  047%=      5-min Rain = 0
KGU1 170151Z 03003KT M09/M18 A3044 RMK A01 T10861181  RH  047%=      5-min Rain = 0
KGU1 170152Z 03003KT M09/M18 A3044 RMK A01 T10871181  RH  047%=      5-min Rain = 0
KGU1 170153Z 03003KT M09/M18 A3044 RMK A01 T10871181  RH  047%=      5-min Rain = 0
KGU1 170154Z 04003KT M09/M18 A3044 RMK A01 T10871182  RH  047%=      5-min Rain = 0
KGU1 170155Z 04003KT M09/M18 A3044 RMK A01 T10871181  RH  047%=      5-min Rain = 0
KGU1 170156Z 04003KT M09/M18 A3044 RMK A01 T10871181  RH  048%=      5-min Rain = 0
KGU1 170157Z 04003KT M09/M18 A3044 RMK A01 T10871181  RH  048%=      5-min Rain = 0
KGU1 170158Z 05002KT M09/M18 A3044 RMK A01 T10881181  RH  047%=      5-min Rain = 0
KGU1 170159Z 04002KT M09/M18 A3044 RMK A01 T10871182  RH  047%=      5-min Rain = 0
KGU1 170200Z 04003KT M09/M18 A3044 RMK A01 T10881182  RH  047%=      5-min Rain = 0
KGU1 170201Z 04002KT M09/M18 A3044 RMK A01 T10881182  RH  047%=      5-min Rain = 0
KGU1 170202Z 04003KT M09/M18 A3044 RMK A01 T10881182  RH  047%=      5-min Rain = 0
KGU1 170203Z 04003KT M09/M18 A3044 RMK A01 T10881182  RH  047%=      5-min Rain = 0
KGU1 170204Z 04003KT M09/M18 A3044 RMK A01 T10881180  RH  048%=      5-min Rain = 0
KGU1 170205Z 04003KT M09/M18 A3044 RMK A01 T10881181  RH  048%=      5-min Rain = 0
KGU1 170206Z 03003KT M09/M18 A3044 RMK A01 T10881181  RH  048%=      5-min Rain = 0
KGU1 170207Z 03003KT M09/M18 A3044 RMK A01 T10881182  RH  047%=      5-min Rain = 0
KGU1 170208Z 03003KT M09/M18 A3044 RMK A01 T10891184  RH  047%=      5-min Rain = 0
KGU1 170209Z 03003KT M09/M18 A3044 RMK A01 T10881184  RH  047%=      5-min Rain = 0
KGU1 170210Z 02003KT M09/M18 A3044 RMK A01 T10881184  RH  047%=      5-min Rain = 0
KGU1 170211Z 03004KT M09/M18 A3044 RMK A01 T10881184  RH  047%=      5-min Rain = 0
KGU1 170212Z 03004KT M09/M18 A3044 RMK A01 T10881184  RH  047%=      5-min Rain = 0
KGU1 170213Z 03004KT M09/M18 A3044 RMK A01 T10881184  RH  047%=      5-min Rain = 0
KGU1 170214Z 03004KT M09/M19 A3044 RMK A01 T10881185  RH  047%=      5-min Rain = 0
KGU1 170215Z 03004KT M09/M18 A3044 RMK A01 T10881184  RH  047%=      5-min Rain = 0
KGU1 170216Z 03004KT M09/M18 A3044 RMK A01 T10891184  RH  047%=      5-min Rain = 0
KGU1 170217Z 02005KT M09/M19 A3044 RMK A01 T10891185  RH  047%=      5-min Rain = 0
KGU1 170218Z 02005KT M09/M18 A3044 RMK A01 T10881184  RH  047%=      5-min Rain = 0
KGU1 170219Z 02005KT M09/M19 A3044 RMK A01 T10891185  RH  047%=      5-min Rain = 0
KGU1 170220Z 02004KT M09/M18 A3044 RMK A01 T10891184  RH  047%=      5-min Rain = 0
KGU1 170221Z 02004KT M09/M19 A3044 RMK A01 T10891185  RH  047%=      5-min Rain = 0
KGU1 170222Z 03004KT M09/M18 A3044 RMK A01 T10881184  RH  047%=      5-min Rain = 0
KGU1 170223Z 02005KT M09/M18 A3044 RMK A01 T10881184  RH  047%=      5-min Rain = 0
KGU1 170224Z 03005KT M09/M19 A3044 RMK A01 T10881185  RH  046%=      5-min Rain = 0
KGU1 170225Z 03005KT M09/M19 A3044 RMK A01 T10881185  RH  046%=      5-min Rain = 0
KGU1 170226Z 03005KT M09/M19 A3044 RMK A01 T10881185  RH  047%=      5-min Rain = 0
KGU1 170227Z 03004KT M09/M19 A3044 RMK A01 T10881185  RH  047%=      5-min Rain = 0
KGU1 170228Z 03004KT M09/M18 A3044 RMK A01 T10881184  RH  047%=      5-min Rain = 0
KGU1 170229Z 03004KT M09/M18 A3044 RMK A01 T10891184  RH  047%=      5-min Rain = 0
KGU1 170230Z 03004KT M09/M18 A3044 RMK A01 T10891184  RH  047%=      5-min Rain = 0
KGU1 170231Z 03004KT M09/M18 A3045 RMK A01 T10891184  RH  047%=      5-min Rain = 0
KGU1 170232Z 03004KT M09/M18 A3045 RMK A01 T10891183  RH  048%=      5-min Rain = 0
KGU1 170233Z 03004KT M09/M18 A3045 RMK A01 T10901184  RH  047%=      5-min Rain = 0
KGU1 170234Z 04004KT M09/M18 A3045 RMK A01 T10901184  RH  047%=      5-min Rain = 0
KGU1 170235Z 03004KT M09/M18 A3045 RMK A01 T10901184  RH  047%=      5-min Rain = 0
KGU1 170236Z 04005KT M09/M18 A3044 RMK A01 T10901184  RH  047%=      5-min Rain = 0
KGU1 170237Z 03005KT M09/M18 A3044 RMK A01 T10901184  RH  048%=      5-min Rain = 0
KGU1 170238Z 03005KT M09/M18 A3044 RMK A01 T10901184  RH  047%=      5-min Rain = 0
KGU1 170239Z 03004KT M09/M19 A3044 RMK A01 T10901185  RH  047%=      5-min Rain = 0
KGU1 170240Z 03004KT M09/M19 A3044 RMK A01 T10901185  RH  047%=      5-min Rain = 0
KGU1 170241Z 03004KT M09/M19 A3044 RMK A01 T10901185  RH  047%=      5-min Rain = 0
KGU1 170242Z 03004KT M09/M19 A3044 RMK A01 T10901185  RH  047%=      5-min Rain = 0
KGU1 170243Z 03004KT M09/M18 A3044 RMK A01 T10901184  RH  047%=      5-min Rain = 0
KGU1 170244Z 04004KT M09/M18 A3045 RMK A01 T10901184  RH  047%=      5-min Rain = 0
KGU1 170245Z 04005KT M09/M18 A3045 RMK A01 T10911183  RH  048%=      5-min Rain = 0
KGU1 170246Z 04004KT M09/M18 A3045 RMK A01 T10911183  RH  048%=      5-min Rain = 0
KGU1 170247Z 03004KT M09/M18 A3045 RMK A01 T10911184  RH  048%=      5-min Rain = 0
KGU1 170248Z 03004KT M09/M18 A3045 RMK A01 T10911184  RH  048%=      5-min Rain = 0
KGU1 170249Z 03004KT M09/M18 A3045 RMK A01 T10911184  RH  048%=      5-min Rain = 0
KGU1 170250Z 03004KT M09/M18 A3045 RMK A01 T10911184  RH  048%=      5-min Rain = 0
KGU1 170251Z 03004KT M09/M18 A3045 RMK A01 T10911184  RH  048%=      5-min Rain = 0
KGU1 170252Z 03004KT M09/M18 A3045 RMK A01 T10921183  RH  048%=      5-min Rain = 0
KGU1 170253Z 03005KT M09/M18 A3045 RMK A01 T10921184  RH  048%=      5-min Rain = 0
KGU1 170254Z 03004KT M09/M18 A3045 RMK A01 T10921184  RH  048%=      5-min Rain = 0
KGU1 170255Z 04004KT M09/M18 A3045 RMK A01 T10921184  RH  048%=      5-min Rain = 0
KGU1 170256Z 04005KT M09/M18 A3045 RMK A01 T10921184  RH  048%=      5-min Rain = 0
KGU1 170257Z 04005KT M09/M18 A3045 RMK A01 T10921184  RH  048%=      5-min Rain = 0
KGU1 170258Z 04004KT M09/M18 A3045 RMK A01 T10921184  RH  048%=      5-min Rain = 0
KGU1 170259Z 04004KT M09/M18 A3045 RMK A01 T10921184  RH  048%=      5-min Rain = 0
KGU1 170300Z 04004KT M09/M18 A3045 RMK A01 T10921184  RH  048%=      5-min Rain = 0
KGU1 170301Z 04004KT M09/M18 A3045 RMK A01 T10921183  RH  049%=      5-min Rain = 0
KGU1 170302Z 04004KT M09/M18 A3045 RMK A01 T10921183  RH  049%=      5-min Rain = 0
KGU1 170303Z 04004KT M09/M18 A3045 RMK A01 T10921183  RH  048%=      5-min Rain = 0
KGU1 170304Z 04004KT M09/M18 A3045 RMK A01 T10921183  RH  049%=      5-min Rain = 0
KGU1 170305Z 03004KT M09/M18 A3045 RMK A01 T10921183  RH  049%=      5-min Rain = 0
KGU1 170306Z 03004KT M09/M18 A3045 RMK A01 T10931184  RH  049%=      5-min Rain = 0
KGU1 170307Z 03004KT M09/M18 A3045 RMK A01 T10931184  RH  048%=      5-min Rain = 0
KGU1 170308Z 03004KT M09/M18 A3045 RMK A01 T10931184  RH  048%=      5-min Rain = 0
KGU1 170309Z 03005KT M09/M18 A3045 RMK A01 T10931184  RH  048%=      5-min Rain = 0
KGU1 170310Z 03005KT M09/M18 A3045 RMK A01 T10931184  RH  048%=      5-min Rain = 0
KGU1 170311Z 03004KT M09/M18 A3045 RMK A01 T10931184  RH  048%=      5-min Rain = 0
KGU1 170312Z 03004KT M09/M18 A3045 RMK A01 T10931184  RH  048%=      5-min Rain = 0
KGU1 170313Z 02005KT M09/M18 A3045 RMK A01 T10931184  RH  048%=      5-min Rain = 0
KGU1 170314Z 03004KT M09/M18 A3045 RMK A01 T10921184  RH  048%=      5-min Rain = 0
KGU1 170315Z 03004KT M09/M18 A3045 RMK A01 T10931184  RH  048%=      5-min Rain = 0
KGU1 170316Z 03004KT M09/M19 A3045 RMK A01 T10921185  RH  048%=      5-min Rain = 0
KGU1 170317Z 03005KT M09/M19 A3045 RMK A01 T10921186  RH  048%=      5-min Rain = 0
KGU1 170318Z 03005KT M09/M19 A3046 RMK A01 T10921186  RH  047%=      5-min Rain = 0
KGU1 170319Z 03005KT M09/M19 A3046 RMK A01 T10911187  RH  047%=      5-min Rain = 0
KGU1 170320Z 02005KT M09/M19 A3046 RMK A01 T10911187  RH  046%=      5-min Rain = 0
KGU1 170321Z 02004KT M09/M19 A3046 RMK A01 T10911187  RH  046%=      5-min Rain = 0
KGU1 170322Z 02004KT M09/M19 A3046 RMK A01 T10901187  RH  047%=      5-min Rain = 0
KGU1 170323Z 02005KT M09/M19 A3045 RMK A01 T10911187  RH  046%=      5-min Rain = 0
KGU1 170324Z 01004KT M09/M19 A3045 RMK A01 T10911187  RH  047%=      5-min Rain = 0
KGU1 170325Z 01004KT M09/M19 A3045 RMK A01 T10911186  RH  047%=      5-min Rain = 0
KGU1 170326Z 01004KT M09/M19 A3045 RMK A01 T10911185  RH  047%=      5-min Rain = 0
KGU1 170327Z 02005KT M09/M19 A3045 RMK A01 T10911185  RH  047%=      5-min Rain = 0
KGU1 170328Z 02005KT M09/M19 A3045 RMK A01 T10911186  RH  047%=      5-min Rain = 0
KGU1 170329Z 03005KT M09/M19 A3045 RMK A01 T10911186  RH  047%=      5-min Rain = 0
KGU1 170330Z 03005KT M09/M19 A3045 RMK A01 T10911187  RH  047%=      5-min Rain = 0
KGU1 170331Z 03005KT M09/M19 A3045 RMK A01 T10911188  RH  046%=      5-min Rain = 0
KGU1 170332Z 02004KT M09/M19 A3045 RMK A01 T10901187  RH  046%=      5-min Rain = 0
KGU1 170333Z 03004KT M09/M19 A3045 RMK A01 T10901187  RH  046%=      5-min Rain = 0
KGU1 170334Z 02004KT M09/M19 A3045 RMK A01 T10901187  RH  046%=      5-min Rain = 0
KGU1 170335Z 02004KT M09/M19 A3045 RMK A01 T10911186  RH  047%=      5-min Rain = 0
KGU1 170336Z 02004KT M09/M19 A3045 RMK A01 T10911185  RH  047%=      5-min Rain = 0
KGU1 170337Z 01002KT M09/M19 A3045 RMK A01 T10911185  RH  048%=      5-min Rain = 0
KGU1 170338Z 00002KT M09/M18 A3045 RMK A01 T10911184  RH  048%=      5-min Rain = 0
KGU1 170339Z 00002KT M09/M18 A3045 RMK A01 T10921184  RH  048%=      5-min Rain = 0
KGU1 170340Z 00001KT M09/M18 A3045 RMK A01 T10921184  RH  048%=      5-min Rain = 0
KGU1 170341Z 00001KT M09/M19 A3045 RMK A01 T10931185  RH  048%=      5-min Rain = 0
KGU1 170342Z 00002KT M09/M19 A3045 RMK A01 T10931185  RH  048%=      5-min Rain = 0
KGU1 170343Z 00001KT M09/M18 A3045 RMK A01 T10931184  RH  048%=      5-min Rain = 0
KGU1 170344Z 00002KT M09/M19 A3045 RMK A01 T10931185  RH  048%=      5-min Rain = 0
KGU1 170345Z 00001KT M09/M19 A3045 RMK A01 T10931185  RH  048%=      5-min Rain = 0
KGU1 170346Z 00001KT M09/M19 A3046 RMK A01 T10931185  RH  048%=      5-min Rain = 0
KGU1 170347Z 00001KT M09/M19 A3046 RMK A01 T10931186  RH  048%=      5-min Rain = 0
KGU1 170348Z 00001KT M09/M19 A3046 RMK A01 T10931185  RH  048%=      5-min Rain = 0
KGU1 170349Z 00001KT M09/M18 A3046 RMK A01 T10931184  RH  048%=      5-min Rain = 0
KGU1 170350Z 00001KT M09/M18 A3046 RMK A01 T10931183  RH  049%=      5-min Rain = 0
KGU1 170351Z 00001KT M09/M18 A3046 RMK A01 T10941184  RH  049%=      5-min Rain = 0
KGU1 170352Z 00001KT M09/M19 A3046 RMK A01 T10941185  RH  048%=      5-min Rain = 0
KGU1 170353Z 00001KT M09/M19 A3046 RMK A01 T10931186  RH  048%=      5-min Rain = 0
KGU1 170354Z 00001KT M09/M19 A3046 RMK A01 T10931185  RH  048%=      5-min Rain = 0
KGU1 170355Z 00001KT M09/M19 A3046 RMK A01 T10941185  RH  049%=      5-min Rain = 0
KGU1 170356Z 00001KT M09/M19 A3046 RMK A01 T10941185  RH  048%=      5-min Rain = 0
KGU1 170357Z 00001KT M09/M19 A3046 RMK A01 T10941185  RH  049%=      5-min Rain = 0
KGU1 170358Z 01002KT M09/M18 A3046 RMK A01 T10941184  RH  049%=      5-min Rain = 0
KGU1 170359Z 02002KT M09/M18 A3046 RMK A01 T10941184  RH  049%=      5-min Rain = 0
KGU1 170400Z 03002KT M09/M19 A3046 RMK A01 T10941185  RH  048%=      5-min Rain = 0
KGU1 170401Z 03003KT M09/M18 A3046 RMK A01 T10941184  RH  049%=      5-min Rain = 0
KGU1 170402Z 03003KT M09/M18 A3046 RMK A01 T10941184  RH  049%=      5-min Rain = 0
KGU1 170403Z 03003KT M09/M19 A3046 RMK A01 T10941185  RH  048%=      5-min Rain = 0
KGU1 170404Z 03003KT M09/M19 A3046 RMK A01 T10931185  RH  048%=      5-min Rain = 0
KGU1 170405Z 03003KT M09/M19 A3046 RMK A01 T10931186  RH  048%=      5-min Rain = 0
KGU1 170406Z 03002KT M09/M19 A3046 RMK A01 T10931186  RH  048%=      5-min Rain = 0
KGU1 170407Z 03003KT M09/M19 A3046 RMK A01 T10921185  RH  048%=      5-min Rain = 0
KGU1 170408Z 03003KT M09/M19 A3046 RMK A01 T10921185  RH  048%=      5-min Rain = 0
KGU1 170409Z 04003KT M09/M19 A3046 RMK A01 T10921186  RH  048%=      5-min Rain = 0
KGU1 170410Z 04002KT M09/M19 A3046 RMK A01 T10921186  RH  047%=      5-min Rain = 0
KGU1 170411Z 03003KT M09/M19 A3046 RMK A01 T10921187  RH  047%=      5-min Rain = 0
KGU1 170412Z 03003KT M09/M19 A3046 RMK A01 T10921186  RH  047%=      5-min Rain = 0
KGU1 170413Z 03003KT M09/M19 A3046 RMK A01 T10911185  RH  047%=      5-min Rain = 0
KGU1 170414Z 03003KT M09/M19 A3046 RMK A01 T10921186  RH  047%=      5-min Rain = 0
KGU1 170415Z 04003KT M09/M19 A3046 RMK A01 T10911185  RH  047%=      5-min Rain = 0
KGU1 170416Z 03003KT M09/M19 A3046 RMK A01 T10921185  RH  048%=      5-min Rain = 0
KGU1 170417Z 03004KT M09/M19 A3046 RMK A01 T10921185  RH  048%=      5-min Rain = 0
KGU1 170418Z 03004KT M09/M19 A3046 RMK A01 T10921185  RH  048%=      5-min Rain = 0
KGU1 170419Z 03003KT M09/M19 A3046 RMK A01 T10921185  RH  048%=      5-min Rain = 0
KGU1 170420Z 03003KT M09/M19 A3046 RMK A01 T10921185  RH  048%=      5-min Rain = 0
KGU1 170421Z 03003KT M09/M19 A3046 RMK A01 T10921185  RH  048%=      5-min Rain = 0
KGU1 170422Z 02003KT M09/M19 A3046 RMK A01 T10921185  RH  048%=      5-min Rain = 0
KGU1 170423Z 02003KT M09/M19 A3046 RMK A01 T10921187  RH  047%=      5-min Rain = 0
KGU1 170424Z 02003KT M09/M19 A3046 RMK A01 T10921187  RH  047%=      5-min Rain = 0
KGU1 170425Z 02003KT M09/M19 A3046 RMK A01 T10921187  RH  047%=      5-min Rain = 0
KGU1 170426Z 02003KT M09/M19 A3046 RMK A01 T10921187  RH  047%=      5-min Rain = 0
KGU1 170427Z 02003KT M09/M19 A3046 RMK A01 T10921187  RH  047%=      5-min Rain = 0
KGU1 170428Z 02003KT M09/M19 A3046 RMK A01 T10921188  RH  047%=      5-min Rain = 0
KGU1 170429Z 01003KT M09/M19 A3046 RMK A01 T10921188  RH  047%=      5-min Rain = 0
KGU1 170430Z 01003KT M09/M19 A3046 RMK A01 T10921188  RH  046%=      5-min Rain = 0
KGU1 170431Z 01002KT M09/M19 A3046 RMK A01 T10911189  RH  046%=      5-min Rain = 0
KGU1 170432Z 01003KT M09/M19 A3046 RMK A01 T10911187  RH  047%=      5-min Rain = 0
KGU1 170433Z 35003KT M09/M19 A3046 RMK A01 T10921187  RH  047%=      5-min Rain = 0
KGU1 170434Z 32002KT M09/M19 A3046 RMK A01 T10921188  RH  046%=      5-min Rain = 0
KGU1 170435Z 30000KT M09/M19 A3046 RMK A01 T10911188  RH  046%=      5-min Rain = 0
KGU1 170436Z 00000KT M09/M19 A3046 RMK A01 T10901188  RH  046%=      5-min Rain = 0
KGU1 170437Z 00000KT M09/M19 A3046 RMK A01 T10901188  RH  046%=      5-min Rain = 0
KGU1 170438Z 00000KT M09/M19 A3046 RMK A01 T10901188  RH  046%=      5-min Rain = 0
KGU1 170439Z 00000KT M09/M19 A3046 RMK A01 T10891189  RH  045%=      5-min Rain = 0
KGU1 170440Z 00000KT M09/M19 A3046 RMK A01 T10891187  RH  046%=      5-min Rain = 0
KGU1 170441Z 01000KT M09/M19 A3046 RMK A01 T10891187  RH  046%=      5-min Rain = 0
KGU1 170442Z 01001KT M09/M19 A3046 RMK A01 T10891189  RH  045%=      5-min Rain = 0
KGU1 170443Z 01002KT M09/M19 A3046 RMK A01 T10891189  RH  045%=      5-min Rain = 0
KGU1 170444Z 02002KT M09/M19 A3046 RMK A01 T10891191  RH  044%=      5-min Rain = 0
KGU1 170445Z 02002KT M09/M19 A3046 RMK A01 T10891191  RH  044%=      5-min Rain = 0
KGU1 170446Z 02002KT M09/M19 A3046 RMK A01 T10891191  RH  044%=      5-min Rain = 0
KGU1 170447Z 02002KT M09/M19 A3046 RMK A01 T10891191  RH  044%=      5-min Rain = 0
KGU1 170448Z 02003KT M09/M19 A3046 RMK A01 T10891191  RH  044%=      5-min Rain = 0
KGU1 170449Z 01003KT M09/M19 A3046 RMK A01 T10891190  RH  045%=      5-min Rain = 0
KGU1 170450Z 01003KT M09/M19 A3046 RMK A01 T10891190  RH  045%=      5-min Rain = 0
KGU1 170451Z 02005KT M09/M19 A3046 RMK A01 T10901189  RH  045%=      5-min Rain = 0
KGU1 170452Z 03004KT M09/M19 A3046 RMK A01 T10901190  RH  045%=      5-min Rain = 0
KGU1 170453Z 02003KT M09/M19 A3047 RMK A01 T10901190  RH  045%=      5-min Rain = 0
KGU1 170454Z 02003KT M09/M19 A3047 RMK A01 T10911189  RH  046%=      5-min Rain = 0
KGU1 170455Z 03002KT M09/M19 A3047 RMK A01 T10911189  RH  046%=      5-min Rain = 0
KGU1 170456Z 03002KT M09/M19 A3047 RMK A01 T10911190  RH  045%=      5-min Rain = 0
KGU1 170457Z 05002KT M09/M19 A3047 RMK A01 T10911191  RH  045%=      5-min Rain = 0
KGU1 170458Z 06001KT M09/M19 A3047 RMK A01 T10911194  RH  044%=      5-min Rain = 0
KGU1 170459Z 02002KT M09/M20 A3047 RMK A01 T10901195  RH  043%=      5-min Rain = 0
KGU1 170500Z 01003KT M09/M19 A3047 RMK A01 T10891193  RH  044%=      5-min Rain = 0
KGU1 170501Z 02003KT M09/M19 A3047 RMK A01 T10871194  RH  043%=      5-min Rain = 0
KGU1 170502Z 03003KT M09/M19 A3047 RMK A01 T10871194  RH  042%=      5-min Rain = 0
KGU1 170503Z 04002KT M09/M19 A3047 RMK A01 T10861194  RH  042%=      5-min Rain = 0
KGU1 170504Z 04002KT M09/M20 A3046 RMK A01 T10861199  RH  041%=      5-min Rain = 0
KGU1 170505Z 02003KT M09/M20 A3046 RMK A01 T10851204  RH  039%=      5-min Rain = 0
KGU1 170506Z 02003KT M08/M20 A3046 RMK A01 T10841203  RH  039%=      5-min Rain = 0
KGU1 170507Z 02003KT M08/M20 A3046 RMK A01 T10841202  RH  039%=      5-min Rain = 0
KGU1 170508Z 01004KT M08/M20 A3046 RMK A01 T10841199  RH  040%=      5-min Rain = 0
KGU1 170509Z 03005KT M08/M20 A3047 RMK A01 T10841196  RH  041%=      5-min Rain = 0
KGU1 170510Z 05004KT M08/M20 A3047 RMK A01 T10831197  RH  040%=      5-min Rain = 0
KGU1 170511Z 04003KT M08/M20 A3047 RMK A01 T10841197  RH  040%=      5-min Rain = 0
KGU1 170512Z 03004KT M08/M20 A3047 RMK A01 T10841199  RH  040%=      5-min Rain = 0
KGU1 170513Z 03003KT M08/M20 A3047 RMK A01 T10841200  RH  039%=      5-min Rain = 0
KGU1 170514Z 02003KT M08/M20 A3047 RMK A01 T10831201  RH  039%=      5-min Rain = 0
KGU1 170515Z 02003KT M08/M20 A3047 RMK A01 T10831202  RH  039%=      5-min Rain = 0
KGU1 170516Z 02003KT M08/M20 A3047 RMK A01 T10831203  RH  038%=      5-min Rain = 0
KGU1 170517Z 03003KT M08/M20 A3047 RMK A01 T10831203  RH  038%=      5-min Rain = 0
KGU1 170518Z 04004KT M08/M20 A3047 RMK A01 T10831202  RH  038%=      5-min Rain = 0
KGU1 170519Z 05004KT M08/M20 A3047 RMK A01 T10831200  RH  039%=      5-min Rain = 0
KGU1 170520Z 07004KT M08/M21 A3047 RMK A01 T10831207  RH  037%=      5-min Rain = 0
KGU1 170521Z 07002KT M08/M21 A3047 RMK A01 T10821210  RH  036%=      5-min Rain = 0
KGU1 170522Z 04002KT M08/M21 A3047 RMK A01 T10811211  RH  035%=      5-min Rain = 0
KGU1 170523Z 00002KT M08/M21 A3047 RMK A01 T10801214  RH  034%=      5-min Rain = 0
KGU1 170524Z 01003KT M08/M21 A3047 RMK A01 T10791210  RH  035%=      5-min Rain = 0
KGU1 170525Z 01004KT M08/M21 A3047 RMK A01 T10791212  RH  034%=      5-min Rain = 0
KGU1 170526Z 03004KT M08/M21 A3047 RMK A01 T10791210  RH  035%=      5-min Rain = 0
KGU1 170527Z 05004KT M08/M21 A3047 RMK A01 T10791209  RH  035%=      5-min Rain = 0
KGU1 170528Z 04004KT M08/M21 A3047 RMK A01 T10801209  RH  035%=      5-min Rain = 0
KGU1 170529Z 05004KT M08/M21 A3047 RMK A01 T10801208  RH  036%=      5-min Rain = 0
KGU1 170530Z 05003KT M08/M21 A3047 RMK A01 T10811208  RH  036%=      5-min Rain = 0
KGU1 170531Z 04004KT M08/M21 A3047 RMK A01 T10811211  RH  035%=      5-min Rain = 0
KGU1 170532Z 04004KT M08/M21 A3046 RMK A01 T10811210  RH  035%=      5-min Rain = 0
KGU1 170533Z 04004KT M08/M21 A3046 RMK A01 T10811210  RH  036%=      5-min Rain = 0
KGU1 170534Z 02005KT M08/M21 A3046 RMK A01 T10811213  RH  034%=      5-min Rain = 0
KGU1 170535Z 01004KT M08/M21 A3046 RMK A01 T10791214  RH  034%=      5-min Rain = 0
KGU1 170536Z 02004KT M08/M21 A3046 RMK A01 T10781213  RH  034%=      5-min Rain = 0
KGU1 170537Z 01005KT M08/M21 A3046 RMK A01 T10791211  RH  035%=      5-min Rain = 0
KGU1 170538Z 02005KT M08/M21 A3046 RMK A01 T10791214  RH  034%=      5-min Rain = 0
KGU1 170539Z 02004KT M08/M21 A3046 RMK A01 T10781212  RH  034%=      5-min Rain = 0
KGU1 170540Z 01004KT M08/M21 A3046 RMK A01 T10791211  RH  035%=      5-min Rain = 0
KGU1 170541Z 01005KT M08/M21 A3046 RMK A01 T10791210  RH  035%=      5-min Rain = 0
KGU1 170542Z 01005KT M08/M21 A3046 RMK A01 T10791209  RH  035%=      5-min Rain = 0
KGU1 170543Z 01005KT M08/M21 A3046 RMK A01 T10791209  RH  035%=      5-min Rain = 0
KGU1 170544Z 02004KT M08/M21 A3046 RMK A01 T10791210  RH  035%=      5-min Rain = 0
KGU1 170545Z 04002KT M08/M21 A3046 RMK A01 T10791213  RH  034%=      5-min Rain = 0
KGU1 170546Z 04003KT M08/M22 A3046 RMK A01 T10781215  RH  033%=      5-min Rain = 0
KGU1 170547Z 02003KT M08/M21 A3046 RMK A01 T10781212  RH  034%=      5-min Rain = 0
KGU1 170548Z 02003KT M08/M21 A3046 RMK A01 T10781211  RH  034%=      5-min Rain = 0
KGU1 170549Z 02004KT M08/M21 A3046 RMK A01 T10781210  RH  035%=      5-min Rain = 0
KGU1 170550Z 03005KT M08/M21 A3046 RMK A01 T10781209  RH  035%=      5-min Rain = 0
KGU1 170551Z 02005KT M08/M21 A3046 RMK A01 T10791207  RH  036%=      5-min Rain = 0
KGU1 170552Z 02007KT M08/M21 A3046 RMK A01 T10791210  RH  035%=      5-min Rain = 0
KGU1 170553Z 02003KT M08/M21 A3046 RMK A01 T10781214  RH  034%=      5-min Rain = 0
KGU1 170554Z 03005KT M08/M21 A3046 RMK A01 T10781208  RH  035%=      5-min Rain = 0
KGU1 170555Z 03004KT M08/M21 A3046 RMK A01 T10791208  RH  035%=      5-min Rain = 0
KGU1 170556Z 01003KT M08/M21 A3046 RMK A01 T10791210  RH  035%=      5-min Rain = 0
KGU1 170557Z 02003KT M08/M21 A3046 RMK A01 T10791207  RH  036%=      5-min Rain = 0
KGU1 170558Z 03005KT M08/M21 A3046 RMK A01 T10801208  RH  036%=      5-min Rain = 0
KGU1 170559Z 03005KT M08/M21 A3046 RMK A01 T10801205  RH  037%=      5-min Rain = 0

Page generated in 0.0692 seconds.